<?xml version="1.0" encoding="UTF-8" standalone="no" ?>
<gpx xmlns="http://www.topografix.com/GPX/1/1" xmlns:xsi="http://www.w3.org/2001/XMLSchema-instance" xsi:schemaLocation="http://www.topografix.com/GPX/1/1 http://www.topografix.com/GPX/1/1/gpx.xsd" version="1.1" creator="VisuGPX - https://www.visugpx.com">
  <metadata>
    <name>Lyon Trévoux</name>
    <desc><![CDATA[File with points/tracks from Locus Map/3.39.4]]></desc>
  </metadata>
  <trk>
    <name><![CDATA[2019-09-14 09:34:09]]></name>
    <trkseg>
      <trkpt lat="45.74574" lon="4.85926">
        <ele>180.94</ele>
        <time>2019-09-14T07:34:09.000Z</time>
      </trkpt>
      <trkpt lat="45.74596" lon="4.85932">
        <ele>183.14</ele>
        <time>2019-09-14T07:34:14.000Z</time>
      </trkpt>
      <trkpt lat="45.74621" lon="4.85941">
        <ele>186.13</ele>
        <time>2019-09-14T07:34:19.000Z</time>
      </trkpt>
      <trkpt lat="45.74646" lon="4.85945">
        <ele>186.4</ele>
        <time>2019-09-14T07:34:24.000Z</time>
      </trkpt>
      <trkpt lat="45.74669" lon="4.85949">
        <ele>183.41</ele>
        <time>2019-09-14T07:34:29.000Z</time>
      </trkpt>
      <trkpt lat="45.74691" lon="4.85956">
        <ele>182.46</ele>
        <time>2019-09-14T07:34:34.000Z</time>
      </trkpt>
      <trkpt lat="45.74704" lon="4.85961">
        <ele>177.72</ele>
        <time>2019-09-14T07:34:39.000Z</time>
      </trkpt>
      <trkpt lat="45.74716" lon="4.85959">
        <ele>183.21</ele>
        <time>2019-09-14T07:35:22.000Z</time>
      </trkpt>
      <trkpt lat="45.74738" lon="4.85963">
        <ele>185.19</ele>
        <time>2019-09-14T07:35:27.000Z</time>
      </trkpt>
      <trkpt lat="45.74765" lon="4.85968">
        <ele>185.2</ele>
        <time>2019-09-14T07:35:32.000Z</time>
      </trkpt>
      <trkpt lat="45.74795" lon="4.85974">
        <ele>185.47</ele>
        <time>2019-09-14T07:35:37.000Z</time>
      </trkpt>
      <trkpt lat="45.74823" lon="4.85978">
        <ele>186.17</ele>
        <time>2019-09-14T07:35:42.000Z</time>
      </trkpt>
      <trkpt lat="45.74852" lon="4.85978">
        <ele>185.29</ele>
        <time>2019-09-14T07:35:47.000Z</time>
      </trkpt>
      <trkpt lat="45.7488" lon="4.85993">
        <ele>187.2</ele>
        <time>2019-09-14T07:35:52.000Z</time>
      </trkpt>
      <trkpt lat="45.74903" lon="4.86025">
        <ele>179.22</ele>
        <time>2019-09-14T07:35:57.000Z</time>
      </trkpt>
      <trkpt lat="45.74922" lon="4.8603">
        <ele>180.15</ele>
        <time>2019-09-14T07:36:02.000Z</time>
      </trkpt>
      <trkpt lat="45.74932" lon="4.86033">
        <ele>183.17</ele>
        <time>2019-09-14T07:36:32.000Z</time>
      </trkpt>
      <trkpt lat="45.74942" lon="4.86039">
        <ele>185.95</ele>
        <time>2019-09-14T07:36:37.000Z</time>
      </trkpt>
      <trkpt lat="45.74948" lon="4.86024">
        <ele>198.01</ele>
        <time>2019-09-14T07:37:28.000Z</time>
      </trkpt>
      <trkpt lat="45.74959" lon="4.85989">
        <ele>194.31</ele>
        <time>2019-09-14T07:37:33.000Z</time>
      </trkpt>
      <trkpt lat="45.7497" lon="4.85953">
        <ele>186.66</ele>
        <time>2019-09-14T07:37:38.000Z</time>
      </trkpt>
      <trkpt lat="45.74983" lon="4.85909">
        <ele>182.31</ele>
        <time>2019-09-14T07:37:43.000Z</time>
      </trkpt>
      <trkpt lat="45.74998" lon="4.85859">
        <ele>180.34</ele>
        <time>2019-09-14T07:37:48.000Z</time>
      </trkpt>
      <trkpt lat="45.75013" lon="4.85807">
        <ele>181.41</ele>
        <time>2019-09-14T07:37:53.000Z</time>
      </trkpt>
      <trkpt lat="45.75028" lon="4.85759">
        <ele>180.27</ele>
        <time>2019-09-14T07:37:58.000Z</time>
      </trkpt>
      <trkpt lat="45.75044" lon="4.85714">
        <ele>177.23</ele>
        <time>2019-09-14T07:38:03.000Z</time>
      </trkpt>
      <trkpt lat="45.75054" lon="4.85684">
        <ele>175.02</ele>
        <time>2019-09-14T07:38:08.000Z</time>
      </trkpt>
      <trkpt lat="45.75071" lon="4.85642">
        <ele>175.4</ele>
        <time>2019-09-14T07:38:13.000Z</time>
      </trkpt>
      <trkpt lat="45.75086" lon="4.85599">
        <ele>175.17</ele>
        <time>2019-09-14T07:38:18.000Z</time>
      </trkpt>
      <trkpt lat="45.75101" lon="4.8555">
        <ele>173.41</ele>
        <time>2019-09-14T07:38:23.000Z</time>
      </trkpt>
      <trkpt lat="45.75117" lon="4.85501">
        <ele>174.26</ele>
        <time>2019-09-14T07:38:28.000Z</time>
      </trkpt>
      <trkpt lat="45.75139" lon="4.85457">
        <ele>175.16</ele>
        <time>2019-09-14T07:38:33.000Z</time>
      </trkpt>
      <trkpt lat="45.75152" lon="4.85407">
        <ele>173.95</ele>
        <time>2019-09-14T07:38:38.000Z</time>
      </trkpt>
      <trkpt lat="45.75168" lon="4.85362">
        <ele>174.24</ele>
        <time>2019-09-14T07:38:43.000Z</time>
      </trkpt>
      <trkpt lat="45.75182" lon="4.85316">
        <ele>173.27</ele>
        <time>2019-09-14T07:38:48.000Z</time>
      </trkpt>
      <trkpt lat="45.75199" lon="4.8527">
        <ele>171.16</ele>
        <time>2019-09-14T07:38:53.000Z</time>
      </trkpt>
      <trkpt lat="45.75215" lon="4.85227">
        <ele>171.39</ele>
        <time>2019-09-14T07:38:58.000Z</time>
      </trkpt>
      <trkpt lat="45.75229" lon="4.85186">
        <ele>169.4</ele>
        <time>2019-09-14T07:39:03.000Z</time>
      </trkpt>
      <trkpt lat="45.75243" lon="4.8514">
        <ele>170.39</ele>
        <time>2019-09-14T07:39:08.000Z</time>
      </trkpt>
      <trkpt lat="45.75256" lon="4.85114">
        <ele>169.02</ele>
        <time>2019-09-14T07:39:13.000Z</time>
      </trkpt>
      <trkpt lat="45.75262" lon="4.85095">
        <ele>171.92</ele>
        <time>2019-09-14T07:39:34.000Z</time>
      </trkpt>
      <trkpt lat="45.75273" lon="4.85069">
        <ele>172.33</ele>
        <time>2019-09-14T07:39:39.000Z</time>
      </trkpt>
      <trkpt lat="45.75286" lon="4.85031">
        <ele>172.43</ele>
        <time>2019-09-14T07:39:44.000Z</time>
      </trkpt>
      <trkpt lat="45.75299" lon="4.84993">
        <ele>170.21</ele>
        <time>2019-09-14T07:39:49.000Z</time>
      </trkpt>
      <trkpt lat="45.75315" lon="4.84948">
        <ele>172.94</ele>
        <time>2019-09-14T07:39:54.000Z</time>
      </trkpt>
      <trkpt lat="45.7532" lon="4.84933">
        <ele>170.2</ele>
        <time>2019-09-14T07:39:59.000Z</time>
      </trkpt>
      <trkpt lat="45.75326" lon="4.84922">
        <ele>171.53</ele>
        <time>2019-09-14T07:40:53.000Z</time>
      </trkpt>
      <trkpt lat="45.75338" lon="4.84892">
        <ele>171.01</ele>
        <time>2019-09-14T07:40:58.000Z</time>
      </trkpt>
      <trkpt lat="45.75349" lon="4.84852">
        <ele>171.53</ele>
        <time>2019-09-14T07:41:03.000Z</time>
      </trkpt>
      <trkpt lat="45.75365" lon="4.84814">
        <ele>171.38</ele>
        <time>2019-09-14T07:41:08.000Z</time>
      </trkpt>
      <trkpt lat="45.75377" lon="4.84765">
        <ele>171.88</ele>
        <time>2019-09-14T07:41:13.000Z</time>
      </trkpt>
      <trkpt lat="45.75393" lon="4.84721">
        <ele>173.19</ele>
        <time>2019-09-14T07:41:18.000Z</time>
      </trkpt>
      <trkpt lat="45.75408" lon="4.84671">
        <ele>173</ele>
        <time>2019-09-14T07:41:23.000Z</time>
      </trkpt>
      <trkpt lat="45.75426" lon="4.84625">
        <ele>170.45</ele>
        <time>2019-09-14T07:41:28.000Z</time>
      </trkpt>
      <trkpt lat="45.75437" lon="4.8457">
        <ele>169.58</ele>
        <time>2019-09-14T07:41:33.000Z</time>
      </trkpt>
      <trkpt lat="45.75442" lon="4.84557">
        <ele>169.42</ele>
        <time>2019-09-14T07:41:38.000Z</time>
      </trkpt>
      <trkpt lat="45.75423" lon="4.84547">
        <ele>169.39</ele>
        <time>2019-09-14T07:41:43.000Z</time>
      </trkpt>
      <trkpt lat="45.75436" lon="4.84541">
        <ele>174.61</ele>
        <time>2019-09-14T07:41:52.000Z</time>
      </trkpt>
      <trkpt lat="45.75439" lon="4.84557">
        <ele>180.61</ele>
        <time>2019-09-14T07:42:00.000Z</time>
      </trkpt>
      <trkpt lat="45.75446" lon="4.84543">
        <ele>173.92</ele>
        <time>2019-09-14T07:42:35.000Z</time>
      </trkpt>
      <trkpt lat="45.75456" lon="4.84515">
        <ele>172.81</ele>
        <time>2019-09-14T07:42:40.000Z</time>
      </trkpt>
      <trkpt lat="45.75473" lon="4.84472">
        <ele>171.46</ele>
        <time>2019-09-14T07:42:45.000Z</time>
      </trkpt>
      <trkpt lat="45.75485" lon="4.84429">
        <ele>177.98</ele>
        <time>2019-09-14T07:42:50.000Z</time>
      </trkpt>
      <trkpt lat="45.75492" lon="4.84408">
        <ele>176.94</ele>
        <time>2019-09-14T07:43:12.000Z</time>
      </trkpt>
      <trkpt lat="45.75506" lon="4.84372">
        <ele>171.58</ele>
        <time>2019-09-14T07:43:17.000Z</time>
      </trkpt>
      <trkpt lat="45.7552" lon="4.84337">
        <ele>172.32</ele>
        <time>2019-09-14T07:43:22.000Z</time>
      </trkpt>
      <trkpt lat="45.75532" lon="4.84298">
        <ele>173.14</ele>
        <time>2019-09-14T07:43:27.000Z</time>
      </trkpt>
      <trkpt lat="45.75548" lon="4.84257">
        <ele>169.3</ele>
        <time>2019-09-14T07:43:32.000Z</time>
      </trkpt>
      <trkpt lat="45.75562" lon="4.84216">
        <ele>171.92</ele>
        <time>2019-09-14T07:43:37.000Z</time>
      </trkpt>
      <trkpt lat="45.75576" lon="4.84176">
        <ele>172.24</ele>
        <time>2019-09-14T07:43:42.000Z</time>
      </trkpt>
      <trkpt lat="45.75591" lon="4.84141">
        <ele>172.23</ele>
        <time>2019-09-14T07:43:47.000Z</time>
      </trkpt>
      <trkpt lat="45.75603" lon="4.84102">
        <ele>171.3</ele>
        <time>2019-09-14T07:43:52.000Z</time>
      </trkpt>
      <trkpt lat="45.75617" lon="4.84059">
        <ele>169.2</ele>
        <time>2019-09-14T07:43:57.000Z</time>
      </trkpt>
      <trkpt lat="45.75634" lon="4.84014">
        <ele>169.19</ele>
        <time>2019-09-14T07:44:02.000Z</time>
      </trkpt>
      <trkpt lat="45.75647" lon="4.83963">
        <ele>168.37</ele>
        <time>2019-09-14T07:44:07.000Z</time>
      </trkpt>
      <trkpt lat="45.75663" lon="4.83919">
        <ele>168.93</ele>
        <time>2019-09-14T07:44:12.000Z</time>
      </trkpt>
      <trkpt lat="45.75676" lon="4.83873">
        <ele>170.16</ele>
        <time>2019-09-14T07:44:17.000Z</time>
      </trkpt>
      <trkpt lat="45.75689" lon="4.83824">
        <ele>171.17</ele>
        <time>2019-09-14T07:44:22.000Z</time>
      </trkpt>
      <trkpt lat="45.75703" lon="4.83779">
        <ele>171.19</ele>
        <time>2019-09-14T07:44:27.000Z</time>
      </trkpt>
      <trkpt lat="45.75716" lon="4.8374">
        <ele>170.19</ele>
        <time>2019-09-14T07:44:32.000Z</time>
      </trkpt>
      <trkpt lat="45.75725" lon="4.83711">
        <ele>170.23</ele>
        <time>2019-09-14T07:44:37.000Z</time>
      </trkpt>
      <trkpt lat="45.75731" lon="4.83695">
        <ele>173.19</ele>
        <time>2019-09-14T07:45:15.000Z</time>
      </trkpt>
      <trkpt lat="45.75739" lon="4.83654">
        <ele>172.35</ele>
        <time>2019-09-14T07:45:20.000Z</time>
      </trkpt>
      <trkpt lat="45.75745" lon="4.83609">
        <ele>171.43</ele>
        <time>2019-09-14T07:45:25.000Z</time>
      </trkpt>
      <trkpt lat="45.75757" lon="4.83558">
        <ele>171.42</ele>
        <time>2019-09-14T07:45:30.000Z</time>
      </trkpt>
      <trkpt lat="45.75772" lon="4.83513">
        <ele>173.11</ele>
        <time>2019-09-14T07:45:35.000Z</time>
      </trkpt>
      <trkpt lat="45.75779" lon="4.83488">
        <ele>173.17</ele>
        <time>2019-09-14T07:45:40.000Z</time>
      </trkpt>
      <trkpt lat="45.75789" lon="4.83458">
        <ele>174.36</ele>
        <time>2019-09-14T07:45:45.000Z</time>
      </trkpt>
      <trkpt lat="45.75797" lon="4.83412">
        <ele>172.36</ele>
        <time>2019-09-14T07:45:50.000Z</time>
      </trkpt>
      <trkpt lat="45.75805" lon="4.83369">
        <ele>170.92</ele>
        <time>2019-09-14T07:45:55.000Z</time>
      </trkpt>
      <trkpt lat="45.75817" lon="4.83327">
        <ele>173.1</ele>
        <time>2019-09-14T07:46:00.000Z</time>
      </trkpt>
      <trkpt lat="45.75831" lon="4.83288">
        <ele>171.48</ele>
        <time>2019-09-14T07:46:05.000Z</time>
      </trkpt>
      <trkpt lat="45.75844" lon="4.83242">
        <ele>171.02</ele>
        <time>2019-09-14T07:46:10.000Z</time>
      </trkpt>
      <trkpt lat="45.75856" lon="4.83194">
        <ele>169.22</ele>
        <time>2019-09-14T07:46:15.000Z</time>
      </trkpt>
      <trkpt lat="45.75869" lon="4.83151">
        <ele>168.97</ele>
        <time>2019-09-14T07:46:20.000Z</time>
      </trkpt>
      <trkpt lat="45.75886" lon="4.8311">
        <ele>165.74</ele>
        <time>2019-09-14T07:46:25.000Z</time>
      </trkpt>
      <trkpt lat="45.75901" lon="4.83066">
        <ele>163.42</ele>
        <time>2019-09-14T07:46:30.000Z</time>
      </trkpt>
      <trkpt lat="45.7591" lon="4.83015">
        <ele>167.1</ele>
        <time>2019-09-14T07:46:35.000Z</time>
      </trkpt>
      <trkpt lat="45.75922" lon="4.82977">
        <ele>166.16</ele>
        <time>2019-09-14T07:46:40.000Z</time>
      </trkpt>
      <trkpt lat="45.75933" lon="4.82935">
        <ele>167.15</ele>
        <time>2019-09-14T07:46:45.000Z</time>
      </trkpt>
      <trkpt lat="45.75945" lon="4.82897">
        <ele>167.92</ele>
        <time>2019-09-14T07:46:50.000Z</time>
      </trkpt>
      <trkpt lat="45.75959" lon="4.82863">
        <ele>168.22</ele>
        <time>2019-09-14T07:46:55.000Z</time>
      </trkpt>
      <trkpt lat="45.7597" lon="4.82829">
        <ele>169.14</ele>
        <time>2019-09-14T07:47:00.000Z</time>
      </trkpt>
      <trkpt lat="45.75977" lon="4.82805">
        <ele>167.22</ele>
        <time>2019-09-14T07:47:05.000Z</time>
      </trkpt>
      <trkpt lat="45.75987" lon="4.82804">
        <ele>167.16</ele>
        <time>2019-09-14T07:47:10.000Z</time>
      </trkpt>
      <trkpt lat="45.7601" lon="4.82817">
        <ele>168.11</ele>
        <time>2019-09-14T07:47:15.000Z</time>
      </trkpt>
      <trkpt lat="45.76045" lon="4.82837">
        <ele>166.47</ele>
        <time>2019-09-14T07:47:20.000Z</time>
      </trkpt>
      <trkpt lat="45.76083" lon="4.82853">
        <ele>164.65</ele>
        <time>2019-09-14T07:47:25.000Z</time>
      </trkpt>
      <trkpt lat="45.76115" lon="4.82865">
        <ele>164.85</ele>
        <time>2019-09-14T07:47:30.000Z</time>
      </trkpt>
      <trkpt lat="45.76128" lon="4.8287">
        <ele>167.89</ele>
        <time>2019-09-14T07:47:35.000Z</time>
      </trkpt>
      <trkpt lat="45.76139" lon="4.82875">
        <ele>167.89</ele>
        <time>2019-09-14T07:47:47.000Z</time>
      </trkpt>
      <trkpt lat="45.76162" lon="4.82883">
        <ele>165.55</ele>
        <time>2019-09-14T07:47:52.000Z</time>
      </trkpt>
      <trkpt lat="45.76189" lon="4.82891">
        <ele>166.34</ele>
        <time>2019-09-14T07:47:57.000Z</time>
      </trkpt>
      <trkpt lat="45.76215" lon="4.82908">
        <ele>169.12</ele>
        <time>2019-09-14T07:48:02.000Z</time>
      </trkpt>
      <trkpt lat="45.76242" lon="4.82924">
        <ele>171.14</ele>
        <time>2019-09-14T07:48:07.000Z</time>
      </trkpt>
      <trkpt lat="45.76268" lon="4.82935">
        <ele>171.03</ele>
        <time>2019-09-14T07:48:12.000Z</time>
      </trkpt>
      <trkpt lat="45.7629" lon="4.82942">
        <ele>170.18</ele>
        <time>2019-09-14T07:48:17.000Z</time>
      </trkpt>
      <trkpt lat="45.76301" lon="4.82945">
        <ele>176.41</ele>
        <time>2019-09-14T07:48:39.000Z</time>
      </trkpt>
      <trkpt lat="45.76322" lon="4.8295">
        <ele>174.18</ele>
        <time>2019-09-14T07:48:44.000Z</time>
      </trkpt>
      <trkpt lat="45.76347" lon="4.8295">
        <ele>172.29</ele>
        <time>2019-09-14T07:48:49.000Z</time>
      </trkpt>
      <trkpt lat="45.76379" lon="4.82942">
        <ele>169.14</ele>
        <time>2019-09-14T07:48:54.000Z</time>
      </trkpt>
      <trkpt lat="45.76412" lon="4.82945">
        <ele>168.41</ele>
        <time>2019-09-14T07:48:59.000Z</time>
      </trkpt>
      <trkpt lat="45.76442" lon="4.82944">
        <ele>170.78</ele>
        <time>2019-09-14T07:49:04.000Z</time>
      </trkpt>
      <trkpt lat="45.7647" lon="4.82931">
        <ele>172.34</ele>
        <time>2019-09-14T07:49:09.000Z</time>
      </trkpt>
      <trkpt lat="45.76495" lon="4.82916">
        <ele>172.17</ele>
        <time>2019-09-14T07:49:14.000Z</time>
      </trkpt>
      <trkpt lat="45.76529" lon="4.82916">
        <ele>172.18</ele>
        <time>2019-09-14T07:49:19.000Z</time>
      </trkpt>
      <trkpt lat="45.76565" lon="4.8291">
        <ele>169.23</ele>
        <time>2019-09-14T07:49:24.000Z</time>
      </trkpt>
      <trkpt lat="45.76598" lon="4.82897">
        <ele>167.48</ele>
        <time>2019-09-14T07:49:29.000Z</time>
      </trkpt>
      <trkpt lat="45.76627" lon="4.82889">
        <ele>165.65</ele>
        <time>2019-09-14T07:49:34.000Z</time>
      </trkpt>
      <trkpt lat="45.76648" lon="4.82863">
        <ele>166.16</ele>
        <time>2019-09-14T07:49:39.000Z</time>
      </trkpt>
      <trkpt lat="45.76667" lon="4.82838">
        <ele>162.67</ele>
        <time>2019-09-14T07:49:44.000Z</time>
      </trkpt>
      <trkpt lat="45.7668" lon="4.82813">
        <ele>162.23</ele>
        <time>2019-09-14T07:49:49.000Z</time>
      </trkpt>
      <trkpt lat="45.76701" lon="4.82781">
        <ele>162.1</ele>
        <time>2019-09-14T07:49:54.000Z</time>
      </trkpt>
      <trkpt lat="45.76722" lon="4.82743">
        <ele>164.04</ele>
        <time>2019-09-14T07:49:59.000Z</time>
      </trkpt>
      <trkpt lat="45.76736" lon="4.82703">
        <ele>163.98</ele>
        <time>2019-09-14T07:50:04.000Z</time>
      </trkpt>
      <trkpt lat="45.76746" lon="4.82658">
        <ele>163.97</ele>
        <time>2019-09-14T07:50:09.000Z</time>
      </trkpt>
      <trkpt lat="45.76751" lon="4.8261">
        <ele>162.18</ele>
        <time>2019-09-14T07:50:14.000Z</time>
      </trkpt>
      <trkpt lat="45.76749" lon="4.82561">
        <ele>162.16</ele>
        <time>2019-09-14T07:50:19.000Z</time>
      </trkpt>
      <trkpt lat="45.76746" lon="4.82511">
        <ele>163.83</ele>
        <time>2019-09-14T07:50:24.000Z</time>
      </trkpt>
      <trkpt lat="45.76745" lon="4.82464">
        <ele>164.91</ele>
        <time>2019-09-14T07:50:29.000Z</time>
      </trkpt>
      <trkpt lat="45.76743" lon="4.82415">
        <ele>165.91</ele>
        <time>2019-09-14T07:50:34.000Z</time>
      </trkpt>
      <trkpt lat="45.76745" lon="4.82368">
        <ele>164.45</ele>
        <time>2019-09-14T07:50:39.000Z</time>
      </trkpt>
      <trkpt lat="45.76742" lon="4.82319">
        <ele>167.65</ele>
        <time>2019-09-14T07:50:44.000Z</time>
      </trkpt>
      <trkpt lat="45.7674" lon="4.82275">
        <ele>168.15</ele>
        <time>2019-09-14T07:50:49.000Z</time>
      </trkpt>
      <trkpt lat="45.76733" lon="4.8223">
        <ele>167.22</ele>
        <time>2019-09-14T07:50:54.000Z</time>
      </trkpt>
      <trkpt lat="45.7672" lon="4.82187">
        <ele>166.65</ele>
        <time>2019-09-14T07:50:59.000Z</time>
      </trkpt>
      <trkpt lat="45.76708" lon="4.82139">
        <ele>168.9</ele>
        <time>2019-09-14T07:51:04.000Z</time>
      </trkpt>
      <trkpt lat="45.76695" lon="4.82098">
        <ele>169.09</ele>
        <time>2019-09-14T07:51:09.000Z</time>
      </trkpt>
      <trkpt lat="45.7668" lon="4.8206">
        <ele>168.35</ele>
        <time>2019-09-14T07:51:14.000Z</time>
      </trkpt>
      <trkpt lat="45.76673" lon="4.82013">
        <ele>170.26</ele>
        <time>2019-09-14T07:51:19.000Z</time>
      </trkpt>
      <trkpt lat="45.76662" lon="4.81974">
        <ele>170.1</ele>
        <time>2019-09-14T07:51:24.000Z</time>
      </trkpt>
      <trkpt lat="45.76655" lon="4.81925">
        <ele>171.14</ele>
        <time>2019-09-14T07:51:29.000Z</time>
      </trkpt>
      <trkpt lat="45.76648" lon="4.8188">
        <ele>171.33</ele>
        <time>2019-09-14T07:51:34.000Z</time>
      </trkpt>
      <trkpt lat="45.76646" lon="4.81835">
        <ele>169.21</ele>
        <time>2019-09-14T07:51:39.000Z</time>
      </trkpt>
      <trkpt lat="45.76649" lon="4.8179">
        <ele>168.2</ele>
        <time>2019-09-14T07:51:44.000Z</time>
      </trkpt>
      <trkpt lat="45.76657" lon="4.81744">
        <ele>169.14</ele>
        <time>2019-09-14T07:51:49.000Z</time>
      </trkpt>
      <trkpt lat="45.76665" lon="4.81697">
        <ele>169.37</ele>
        <time>2019-09-14T07:51:54.000Z</time>
      </trkpt>
      <trkpt lat="45.76674" lon="4.8165">
        <ele>169.14</ele>
        <time>2019-09-14T07:51:59.000Z</time>
      </trkpt>
      <trkpt lat="45.76684" lon="4.81604">
        <ele>169.14</ele>
        <time>2019-09-14T07:52:04.000Z</time>
      </trkpt>
      <trkpt lat="45.76698" lon="4.81564">
        <ele>169.34</ele>
        <time>2019-09-14T07:52:09.000Z</time>
      </trkpt>
      <trkpt lat="45.76716" lon="4.81524">
        <ele>169.09</ele>
        <time>2019-09-14T07:52:14.000Z</time>
      </trkpt>
      <trkpt lat="45.76727" lon="4.81483">
        <ele>166.17</ele>
        <time>2019-09-14T07:52:19.000Z</time>
      </trkpt>
      <trkpt lat="45.76742" lon="4.81443">
        <ele>166.89</ele>
        <time>2019-09-14T07:52:24.000Z</time>
      </trkpt>
      <trkpt lat="45.76757" lon="4.81397">
        <ele>167.69</ele>
        <time>2019-09-14T07:52:29.000Z</time>
      </trkpt>
      <trkpt lat="45.76776" lon="4.81354">
        <ele>168.13</ele>
        <time>2019-09-14T07:52:34.000Z</time>
      </trkpt>
      <trkpt lat="45.76801" lon="4.8132">
        <ele>168.13</ele>
        <time>2019-09-14T07:52:39.000Z</time>
      </trkpt>
      <trkpt lat="45.7683" lon="4.81295">
        <ele>167.95</ele>
        <time>2019-09-14T07:52:44.000Z</time>
      </trkpt>
      <trkpt lat="45.76863" lon="4.8128">
        <ele>168.01</ele>
        <time>2019-09-14T07:52:49.000Z</time>
      </trkpt>
      <trkpt lat="45.76895" lon="4.81274">
        <ele>166.15</ele>
        <time>2019-09-14T07:52:54.000Z</time>
      </trkpt>
      <trkpt lat="45.76925" lon="4.81276">
        <ele>167.92</ele>
        <time>2019-09-14T07:52:59.000Z</time>
      </trkpt>
      <trkpt lat="45.76953" lon="4.81271">
        <ele>168.19</ele>
        <time>2019-09-14T07:53:04.000Z</time>
      </trkpt>
      <trkpt lat="45.76979" lon="4.81267">
        <ele>168.85</ele>
        <time>2019-09-14T07:53:09.000Z</time>
      </trkpt>
      <trkpt lat="45.77005" lon="4.81252">
        <ele>166.39</ele>
        <time>2019-09-14T07:53:14.000Z</time>
      </trkpt>
      <trkpt lat="45.77036" lon="4.81227">
        <ele>161.15</ele>
        <time>2019-09-14T07:53:19.000Z</time>
      </trkpt>
      <trkpt lat="45.77066" lon="4.81211">
        <ele>164.44</ele>
        <time>2019-09-14T07:53:24.000Z</time>
      </trkpt>
      <trkpt lat="45.771" lon="4.812">
        <ele>165.19</ele>
        <time>2019-09-14T07:53:29.000Z</time>
      </trkpt>
      <trkpt lat="45.7713" lon="4.81188">
        <ele>167.24</ele>
        <time>2019-09-14T07:53:34.000Z</time>
      </trkpt>
      <trkpt lat="45.77156" lon="4.81172">
        <ele>167.95</ele>
        <time>2019-09-14T07:53:39.000Z</time>
      </trkpt>
      <trkpt lat="45.77186" lon="4.81155">
        <ele>166.23</ele>
        <time>2019-09-14T07:53:44.000Z</time>
      </trkpt>
      <trkpt lat="45.77212" lon="4.81132">
        <ele>167.82</ele>
        <time>2019-09-14T07:53:49.000Z</time>
      </trkpt>
      <trkpt lat="45.77237" lon="4.81103">
        <ele>168.82</ele>
        <time>2019-09-14T07:53:54.000Z</time>
      </trkpt>
      <trkpt lat="45.77262" lon="4.81077">
        <ele>169.78</ele>
        <time>2019-09-14T07:53:59.000Z</time>
      </trkpt>
      <trkpt lat="45.77286" lon="4.8105">
        <ele>172.86</ele>
        <time>2019-09-14T07:54:04.000Z</time>
      </trkpt>
      <trkpt lat="45.77311" lon="4.81018">
        <ele>176.68</ele>
        <time>2019-09-14T07:54:09.000Z</time>
      </trkpt>
      <trkpt lat="45.77333" lon="4.80992">
        <ele>174.19</ele>
        <time>2019-09-14T07:54:14.000Z</time>
      </trkpt>
      <trkpt lat="45.7734" lon="4.80984">
        <ele>179.88</ele>
        <time>2019-09-14T07:54:54.000Z</time>
      </trkpt>
      <trkpt lat="45.77348" lon="4.80972">
        <ele>175.28</ele>
        <time>2019-09-14T07:55:19.000Z</time>
      </trkpt>
      <trkpt lat="45.77371" lon="4.80951">
        <ele>173.86</ele>
        <time>2019-09-14T07:55:24.000Z</time>
      </trkpt>
      <trkpt lat="45.77398" lon="4.80929">
        <ele>171.46</ele>
        <time>2019-09-14T07:55:29.000Z</time>
      </trkpt>
      <trkpt lat="45.77429" lon="4.80903">
        <ele>171.32</ele>
        <time>2019-09-14T07:55:34.000Z</time>
      </trkpt>
      <trkpt lat="45.77456" lon="4.80879">
        <ele>169.1</ele>
        <time>2019-09-14T07:55:39.000Z</time>
      </trkpt>
      <trkpt lat="45.77479" lon="4.80864">
        <ele>172.8</ele>
        <time>2019-09-14T07:55:44.000Z</time>
      </trkpt>
      <trkpt lat="45.77491" lon="4.80859">
        <ele>172.69</ele>
        <time>2019-09-14T07:56:23.000Z</time>
      </trkpt>
      <trkpt lat="45.7751" lon="4.80857">
        <ele>175.07</ele>
        <time>2019-09-14T07:56:28.000Z</time>
      </trkpt>
      <trkpt lat="45.77534" lon="4.80839">
        <ele>174.19</ele>
        <time>2019-09-14T07:56:33.000Z</time>
      </trkpt>
      <trkpt lat="45.77565" lon="4.80827">
        <ele>174.15</ele>
        <time>2019-09-14T07:56:38.000Z</time>
      </trkpt>
      <trkpt lat="45.77596" lon="4.80816">
        <ele>174.07</ele>
        <time>2019-09-14T07:56:43.000Z</time>
      </trkpt>
      <trkpt lat="45.77624" lon="4.80801">
        <ele>173.15</ele>
        <time>2019-09-14T07:56:48.000Z</time>
      </trkpt>
      <trkpt lat="45.77656" lon="4.80796">
        <ele>171.95</ele>
        <time>2019-09-14T07:56:53.000Z</time>
      </trkpt>
      <trkpt lat="45.77682" lon="4.80784">
        <ele>171.94</ele>
        <time>2019-09-14T07:56:58.000Z</time>
      </trkpt>
      <trkpt lat="45.77705" lon="4.80784">
        <ele>172.89</ele>
        <time>2019-09-14T07:57:03.000Z</time>
      </trkpt>
      <trkpt lat="45.77734" lon="4.80788">
        <ele>172.63</ele>
        <time>2019-09-14T07:57:08.000Z</time>
      </trkpt>
      <trkpt lat="45.77763" lon="4.8078">
        <ele>174.13</ele>
        <time>2019-09-14T07:57:13.000Z</time>
      </trkpt>
      <trkpt lat="45.77796" lon="4.80788">
        <ele>174.43</ele>
        <time>2019-09-14T07:57:18.000Z</time>
      </trkpt>
      <trkpt lat="45.77826" lon="4.80795">
        <ele>173.38</ele>
        <time>2019-09-14T07:57:23.000Z</time>
      </trkpt>
      <trkpt lat="45.77859" lon="4.808">
        <ele>171.39</ele>
        <time>2019-09-14T07:57:28.000Z</time>
      </trkpt>
      <trkpt lat="45.77885" lon="4.80811">
        <ele>170.37</ele>
        <time>2019-09-14T07:57:33.000Z</time>
      </trkpt>
      <trkpt lat="45.77911" lon="4.80827">
        <ele>165.52</ele>
        <time>2019-09-14T07:57:38.000Z</time>
      </trkpt>
      <trkpt lat="45.77942" lon="4.80848">
        <ele>164.63</ele>
        <time>2019-09-14T07:57:43.000Z</time>
      </trkpt>
      <trkpt lat="45.77967" lon="4.80867">
        <ele>162.95</ele>
        <time>2019-09-14T07:57:48.000Z</time>
      </trkpt>
      <trkpt lat="45.77998" lon="4.80885">
        <ele>166.57</ele>
        <time>2019-09-14T07:57:53.000Z</time>
      </trkpt>
      <trkpt lat="45.78026" lon="4.80901">
        <ele>166.89</ele>
        <time>2019-09-14T07:57:58.000Z</time>
      </trkpt>
      <trkpt lat="45.7804" lon="4.80913">
        <ele>171.7</ele>
        <time>2019-09-14T07:58:03.000Z</time>
      </trkpt>
      <trkpt lat="45.78049" lon="4.8092">
        <ele>176.39</ele>
        <time>2019-09-14T07:58:53.000Z</time>
      </trkpt>
      <trkpt lat="45.78072" lon="4.80936">
        <ele>176.2</ele>
        <time>2019-09-14T07:58:58.000Z</time>
      </trkpt>
      <trkpt lat="45.781" lon="4.80957">
        <ele>177.13</ele>
        <time>2019-09-14T07:59:03.000Z</time>
      </trkpt>
      <trkpt lat="45.78129" lon="4.80982">
        <ele>177.15</ele>
        <time>2019-09-14T07:59:08.000Z</time>
      </trkpt>
      <trkpt lat="45.78157" lon="4.81005">
        <ele>175.4</ele>
        <time>2019-09-14T07:59:13.000Z</time>
      </trkpt>
      <trkpt lat="45.78188" lon="4.8103">
        <ele>173.08</ele>
        <time>2019-09-14T07:59:18.000Z</time>
      </trkpt>
      <trkpt lat="45.7822" lon="4.81055">
        <ele>168.47</ele>
        <time>2019-09-14T07:59:23.000Z</time>
      </trkpt>
      <trkpt lat="45.78251" lon="4.81081">
        <ele>166.93</ele>
        <time>2019-09-14T07:59:28.000Z</time>
      </trkpt>
      <trkpt lat="45.78279" lon="4.81106">
        <ele>168.84</ele>
        <time>2019-09-14T07:59:33.000Z</time>
      </trkpt>
      <trkpt lat="45.78309" lon="4.81132">
        <ele>170.1</ele>
        <time>2019-09-14T07:59:38.000Z</time>
      </trkpt>
      <trkpt lat="45.78342" lon="4.81154">
        <ele>170.4</ele>
        <time>2019-09-14T07:59:43.000Z</time>
      </trkpt>
      <trkpt lat="45.78369" lon="4.81182">
        <ele>167.92</ele>
        <time>2019-09-14T07:59:48.000Z</time>
      </trkpt>
      <trkpt lat="45.78402" lon="4.81208">
        <ele>168.85</ele>
        <time>2019-09-14T07:59:53.000Z</time>
      </trkpt>
      <trkpt lat="45.78432" lon="4.81231">
        <ele>170.14</ele>
        <time>2019-09-14T07:59:58.000Z</time>
      </trkpt>
      <trkpt lat="45.78463" lon="4.81258">
        <ele>170.14</ele>
        <time>2019-09-14T08:00:03.000Z</time>
      </trkpt>
      <trkpt lat="45.78492" lon="4.81279">
        <ele>168.52</ele>
        <time>2019-09-14T08:00:08.000Z</time>
      </trkpt>
      <trkpt lat="45.78523" lon="4.81306">
        <ele>168.17</ele>
        <time>2019-09-14T08:00:13.000Z</time>
      </trkpt>
      <trkpt lat="45.78552" lon="4.81329">
        <ele>166.47</ele>
        <time>2019-09-14T08:00:18.000Z</time>
      </trkpt>
      <trkpt lat="45.78582" lon="4.81349">
        <ele>167.15</ele>
        <time>2019-09-14T08:00:23.000Z</time>
      </trkpt>
      <trkpt lat="45.78612" lon="4.81368">
        <ele>164.42</ele>
        <time>2019-09-14T08:00:28.000Z</time>
      </trkpt>
      <trkpt lat="45.78644" lon="4.81388">
        <ele>164.39</ele>
        <time>2019-09-14T08:00:33.000Z</time>
      </trkpt>
      <trkpt lat="45.78678" lon="4.81405">
        <ele>163.41</ele>
        <time>2019-09-14T08:00:38.000Z</time>
      </trkpt>
      <trkpt lat="45.7871" lon="4.81428">
        <ele>166.65</ele>
        <time>2019-09-14T08:00:43.000Z</time>
      </trkpt>
      <trkpt lat="45.7874" lon="4.81447">
        <ele>164.73</ele>
        <time>2019-09-14T08:00:48.000Z</time>
      </trkpt>
      <trkpt lat="45.78773" lon="4.81474">
        <ele>165.22</ele>
        <time>2019-09-14T08:00:53.000Z</time>
      </trkpt>
      <trkpt lat="45.78801" lon="4.81497">
        <ele>168.82</ele>
        <time>2019-09-14T08:00:58.000Z</time>
      </trkpt>
      <trkpt lat="45.78829" lon="4.81526">
        <ele>170.1</ele>
        <time>2019-09-14T08:01:03.000Z</time>
      </trkpt>
      <trkpt lat="45.78853" lon="4.81549">
        <ele>169.86</ele>
        <time>2019-09-14T08:01:08.000Z</time>
      </trkpt>
      <trkpt lat="45.78881" lon="4.81582">
        <ele>174.84</ele>
        <time>2019-09-14T08:01:13.000Z</time>
      </trkpt>
      <trkpt lat="45.78906" lon="4.81609">
        <ele>176.9</ele>
        <time>2019-09-14T08:01:18.000Z</time>
      </trkpt>
      <trkpt lat="45.7893" lon="4.81643">
        <ele>174.41</ele>
        <time>2019-09-14T08:01:23.000Z</time>
      </trkpt>
      <trkpt lat="45.78954" lon="4.81674">
        <ele>169.54</ele>
        <time>2019-09-14T08:01:28.000Z</time>
      </trkpt>
      <trkpt lat="45.78974" lon="4.81704">
        <ele>172.09</ele>
        <time>2019-09-14T08:01:33.000Z</time>
      </trkpt>
      <trkpt lat="45.78994" lon="4.81733">
        <ele>173.15</ele>
        <time>2019-09-14T08:01:38.000Z</time>
      </trkpt>
      <trkpt lat="45.79011" lon="4.8176">
        <ele>175.91</ele>
        <time>2019-09-14T08:01:43.000Z</time>
      </trkpt>
      <trkpt lat="45.7903" lon="4.81785">
        <ele>174</ele>
        <time>2019-09-14T08:01:48.000Z</time>
      </trkpt>
      <trkpt lat="45.79045" lon="4.81812">
        <ele>176.17</ele>
        <time>2019-09-14T08:01:53.000Z</time>
      </trkpt>
      <trkpt lat="45.79065" lon="4.81835">
        <ele>174.25</ele>
        <time>2019-09-14T08:01:58.000Z</time>
      </trkpt>
      <trkpt lat="45.79085" lon="4.81866">
        <ele>173.69</ele>
        <time>2019-09-14T08:02:03.000Z</time>
      </trkpt>
      <trkpt lat="45.79109" lon="4.81898">
        <ele>175.17</ele>
        <time>2019-09-14T08:02:08.000Z</time>
      </trkpt>
      <trkpt lat="45.79137" lon="4.81933">
        <ele>171.14</ele>
        <time>2019-09-14T08:02:13.000Z</time>
      </trkpt>
      <trkpt lat="45.79161" lon="4.81964">
        <ele>170.92</ele>
        <time>2019-09-14T08:02:18.000Z</time>
      </trkpt>
      <trkpt lat="45.7919" lon="4.81996">
        <ele>170.72</ele>
        <time>2019-09-14T08:02:23.000Z</time>
      </trkpt>
      <trkpt lat="45.79216" lon="4.82029">
        <ele>168.32</ele>
        <time>2019-09-14T08:02:28.000Z</time>
      </trkpt>
      <trkpt lat="45.79229" lon="4.82043">
        <ele>168.18</ele>
        <time>2019-09-14T08:02:33.000Z</time>
      </trkpt>
      <trkpt lat="45.79245" lon="4.8206">
        <ele>168.18</ele>
        <time>2019-09-14T08:02:38.000Z</time>
      </trkpt>
      <trkpt lat="45.79266" lon="4.82089">
        <ele>168.18</ele>
        <time>2019-09-14T08:02:43.000Z</time>
      </trkpt>
      <trkpt lat="45.79283" lon="4.8212">
        <ele>166.1</ele>
        <time>2019-09-14T08:02:48.000Z</time>
      </trkpt>
      <trkpt lat="45.79308" lon="4.82151">
        <ele>170.35</ele>
        <time>2019-09-14T08:02:53.000Z</time>
      </trkpt>
      <trkpt lat="45.79332" lon="4.82181">
        <ele>170.99</ele>
        <time>2019-09-14T08:02:58.000Z</time>
      </trkpt>
      <trkpt lat="45.7935" lon="4.82208">
        <ele>169.26</ele>
        <time>2019-09-14T08:03:03.000Z</time>
      </trkpt>
      <trkpt lat="45.79374" lon="4.82243">
        <ele>169.49</ele>
        <time>2019-09-14T08:03:08.000Z</time>
      </trkpt>
      <trkpt lat="45.79389" lon="4.82275">
        <ele>168.95</ele>
        <time>2019-09-14T08:03:13.000Z</time>
      </trkpt>
      <trkpt lat="45.79409" lon="4.82309">
        <ele>167.48</ele>
        <time>2019-09-14T08:03:18.000Z</time>
      </trkpt>
      <trkpt lat="45.79428" lon="4.82347">
        <ele>166.36</ele>
        <time>2019-09-14T08:03:23.000Z</time>
      </trkpt>
      <trkpt lat="45.79451" lon="4.82382">
        <ele>166.23</ele>
        <time>2019-09-14T08:03:28.000Z</time>
      </trkpt>
      <trkpt lat="45.79469" lon="4.82415">
        <ele>168.21</ele>
        <time>2019-09-14T08:03:33.000Z</time>
      </trkpt>
      <trkpt lat="45.79485" lon="4.82449">
        <ele>166.41</ele>
        <time>2019-09-14T08:03:38.000Z</time>
      </trkpt>
      <trkpt lat="45.79504" lon="4.82481">
        <ele>163.69</ele>
        <time>2019-09-14T08:03:43.000Z</time>
      </trkpt>
      <trkpt lat="45.79522" lon="4.8251">
        <ele>163.19</ele>
        <time>2019-09-14T08:03:48.000Z</time>
      </trkpt>
      <trkpt lat="45.79538" lon="4.82533">
        <ele>167.99</ele>
        <time>2019-09-14T08:03:53.000Z</time>
      </trkpt>
      <trkpt lat="45.79557" lon="4.82567">
        <ele>163.54</ele>
        <time>2019-09-14T08:03:58.000Z</time>
      </trkpt>
      <trkpt lat="45.79575" lon="4.82603">
        <ele>161.51</ele>
        <time>2019-09-14T08:04:03.000Z</time>
      </trkpt>
      <trkpt lat="45.79594" lon="4.82642">
        <ele>159.12</ele>
        <time>2019-09-14T08:04:08.000Z</time>
      </trkpt>
      <trkpt lat="45.79612" lon="4.82679">
        <ele>163.09</ele>
        <time>2019-09-14T08:04:13.000Z</time>
      </trkpt>
      <trkpt lat="45.79631" lon="4.82718">
        <ele>164.18</ele>
        <time>2019-09-14T08:04:18.000Z</time>
      </trkpt>
      <trkpt lat="45.7965" lon="4.82757">
        <ele>165.14</ele>
        <time>2019-09-14T08:04:23.000Z</time>
      </trkpt>
      <trkpt lat="45.79671" lon="4.82795">
        <ele>163.95</ele>
        <time>2019-09-14T08:04:28.000Z</time>
      </trkpt>
      <trkpt lat="45.7969" lon="4.82831">
        <ele>158.94</ele>
        <time>2019-09-14T08:04:33.000Z</time>
      </trkpt>
      <trkpt lat="45.79712" lon="4.82871">
        <ele>161.93</ele>
        <time>2019-09-14T08:04:38.000Z</time>
      </trkpt>
      <trkpt lat="45.79735" lon="4.82913">
        <ele>162.2</ele>
        <time>2019-09-14T08:04:43.000Z</time>
      </trkpt>
      <trkpt lat="45.79754" lon="4.82952">
        <ele>164.7</ele>
        <time>2019-09-14T08:04:48.000Z</time>
      </trkpt>
      <trkpt lat="45.79767" lon="4.82978">
        <ele>163.56</ele>
        <time>2019-09-14T08:04:53.000Z</time>
      </trkpt>
      <trkpt lat="45.79772" lon="4.82992">
        <ele>166.08</ele>
        <time>2019-09-14T08:05:03.000Z</time>
      </trkpt>
      <trkpt lat="45.79779" lon="4.83007">
        <ele>166.22</ele>
        <time>2019-09-14T08:05:08.000Z</time>
      </trkpt>
      <trkpt lat="45.7979" lon="4.83031">
        <ele>167.89</ele>
        <time>2019-09-14T08:05:13.000Z</time>
      </trkpt>
      <trkpt lat="45.79805" lon="4.83068">
        <ele>168.16</ele>
        <time>2019-09-14T08:05:18.000Z</time>
      </trkpt>
      <trkpt lat="45.79825" lon="4.83114">
        <ele>166.77</ele>
        <time>2019-09-14T08:05:23.000Z</time>
      </trkpt>
      <trkpt lat="45.79847" lon="4.83166">
        <ele>168.21</ele>
        <time>2019-09-14T08:05:28.000Z</time>
      </trkpt>
      <trkpt lat="45.79864" lon="4.83211">
        <ele>166.21</ele>
        <time>2019-09-14T08:05:33.000Z</time>
      </trkpt>
      <trkpt lat="45.79878" lon="4.83259">
        <ele>166.45</ele>
        <time>2019-09-14T08:05:38.000Z</time>
      </trkpt>
      <trkpt lat="45.79892" lon="4.83306">
        <ele>164.3</ele>
        <time>2019-09-14T08:05:43.000Z</time>
      </trkpt>
      <trkpt lat="45.79907" lon="4.83353">
        <ele>167.14</ele>
        <time>2019-09-14T08:05:48.000Z</time>
      </trkpt>
      <trkpt lat="45.79921" lon="4.834">
        <ele>168.16</ele>
        <time>2019-09-14T08:05:53.000Z</time>
      </trkpt>
      <trkpt lat="45.79935" lon="4.8345">
        <ele>167.65</ele>
        <time>2019-09-14T08:05:58.000Z</time>
      </trkpt>
      <trkpt lat="45.79947" lon="4.83497">
        <ele>168.14</ele>
        <time>2019-09-14T08:06:03.000Z</time>
      </trkpt>
      <trkpt lat="45.79959" lon="4.83542">
        <ele>169.21</ele>
        <time>2019-09-14T08:06:08.000Z</time>
      </trkpt>
      <trkpt lat="45.79974" lon="4.83584">
        <ele>169.45</ele>
        <time>2019-09-14T08:06:13.000Z</time>
      </trkpt>
      <trkpt lat="45.79995" lon="4.83628">
        <ele>167.54</ele>
        <time>2019-09-14T08:06:18.000Z</time>
      </trkpt>
      <trkpt lat="45.80014" lon="4.8367">
        <ele>168.16</ele>
        <time>2019-09-14T08:06:23.000Z</time>
      </trkpt>
      <trkpt lat="45.80036" lon="4.83706">
        <ele>168.25</ele>
        <time>2019-09-14T08:06:28.000Z</time>
      </trkpt>
      <trkpt lat="45.80056" lon="4.83742">
        <ele>171.91</ele>
        <time>2019-09-14T08:06:33.000Z</time>
      </trkpt>
      <trkpt lat="45.80078" lon="4.83777">
        <ele>173.72</ele>
        <time>2019-09-14T08:06:38.000Z</time>
      </trkpt>
      <trkpt lat="45.801" lon="4.83804">
        <ele>173.97</ele>
        <time>2019-09-14T08:06:43.000Z</time>
      </trkpt>
      <trkpt lat="45.80124" lon="4.83826">
        <ele>172.22</ele>
        <time>2019-09-14T08:06:48.000Z</time>
      </trkpt>
      <trkpt lat="45.80146" lon="4.83845">
        <ele>172.19</ele>
        <time>2019-09-14T08:06:53.000Z</time>
      </trkpt>
      <trkpt lat="45.80168" lon="4.8386">
        <ele>172.43</ele>
        <time>2019-09-14T08:06:58.000Z</time>
      </trkpt>
      <trkpt lat="45.80188" lon="4.83872">
        <ele>174.21</ele>
        <time>2019-09-14T08:07:03.000Z</time>
      </trkpt>
      <trkpt lat="45.80209" lon="4.83882">
        <ele>175.23</ele>
        <time>2019-09-14T08:07:08.000Z</time>
      </trkpt>
      <trkpt lat="45.8023" lon="4.83891">
        <ele>176.21</ele>
        <time>2019-09-14T08:07:13.000Z</time>
      </trkpt>
      <trkpt lat="45.8025" lon="4.83899">
        <ele>176.29</ele>
        <time>2019-09-14T08:07:18.000Z</time>
      </trkpt>
      <trkpt lat="45.80267" lon="4.83907">
        <ele>178.38</ele>
        <time>2019-09-14T08:07:23.000Z</time>
      </trkpt>
      <trkpt lat="45.8029" lon="4.83916">
        <ele>180.17</ele>
        <time>2019-09-14T08:07:28.000Z</time>
      </trkpt>
      <trkpt lat="45.80312" lon="4.83939">
        <ele>181.46</ele>
        <time>2019-09-14T08:07:33.000Z</time>
      </trkpt>
      <trkpt lat="45.80342" lon="4.83969">
        <ele>181.47</ele>
        <time>2019-09-14T08:07:38.000Z</time>
      </trkpt>
      <trkpt lat="45.8038" lon="4.84001">
        <ele>182.17</ele>
        <time>2019-09-14T08:07:43.000Z</time>
      </trkpt>
      <trkpt lat="45.80428" lon="4.84026">
        <ele>176.47</ele>
        <time>2019-09-14T08:07:48.000Z</time>
      </trkpt>
      <trkpt lat="45.80475" lon="4.84054">
        <ele>172.26</ele>
        <time>2019-09-14T08:07:53.000Z</time>
      </trkpt>
      <trkpt lat="45.80522" lon="4.84079">
        <ele>167.92</ele>
        <time>2019-09-14T08:07:58.000Z</time>
      </trkpt>
      <trkpt lat="45.80563" lon="4.84105">
        <ele>167.92</ele>
        <time>2019-09-14T08:08:03.000Z</time>
      </trkpt>
      <trkpt lat="45.80604" lon="4.84124">
        <ele>161.87</ele>
        <time>2019-09-14T08:08:08.000Z</time>
      </trkpt>
      <trkpt lat="45.80639" lon="4.84141">
        <ele>158.38</ele>
        <time>2019-09-14T08:08:13.000Z</time>
      </trkpt>
      <trkpt lat="45.80674" lon="4.84156">
        <ele>159.05</ele>
        <time>2019-09-14T08:08:18.000Z</time>
      </trkpt>
      <trkpt lat="45.8071" lon="4.8417">
        <ele>162.15</ele>
        <time>2019-09-14T08:08:23.000Z</time>
      </trkpt>
      <trkpt lat="45.80746" lon="4.8418">
        <ele>158.07</ele>
        <time>2019-09-14T08:08:28.000Z</time>
      </trkpt>
      <trkpt lat="45.80785" lon="4.84185">
        <ele>156.42</ele>
        <time>2019-09-14T08:08:33.000Z</time>
      </trkpt>
      <trkpt lat="45.80822" lon="4.84189">
        <ele>154.49</ele>
        <time>2019-09-14T08:08:38.000Z</time>
      </trkpt>
      <trkpt lat="45.80856" lon="4.84192">
        <ele>157.03</ele>
        <time>2019-09-14T08:08:43.000Z</time>
      </trkpt>
      <trkpt lat="45.8089" lon="4.84194">
        <ele>160.23</ele>
        <time>2019-09-14T08:08:48.000Z</time>
      </trkpt>
      <trkpt lat="45.80922" lon="4.84195">
        <ele>165.34</ele>
        <time>2019-09-14T08:08:53.000Z</time>
      </trkpt>
      <trkpt lat="45.80958" lon="4.84192">
        <ele>162.51</ele>
        <time>2019-09-14T08:08:58.000Z</time>
      </trkpt>
      <trkpt lat="45.80994" lon="4.84196">
        <ele>164</ele>
        <time>2019-09-14T08:09:03.000Z</time>
      </trkpt>
      <trkpt lat="45.8103" lon="4.84207">
        <ele>167.47</ele>
        <time>2019-09-14T08:09:08.000Z</time>
      </trkpt>
      <trkpt lat="45.81064" lon="4.84216">
        <ele>170.82</ele>
        <time>2019-09-14T08:09:13.000Z</time>
      </trkpt>
      <trkpt lat="45.81098" lon="4.84227">
        <ele>171.32</ele>
        <time>2019-09-14T08:09:18.000Z</time>
      </trkpt>
      <trkpt lat="45.81131" lon="4.84247">
        <ele>169.5</ele>
        <time>2019-09-14T08:09:23.000Z</time>
      </trkpt>
      <trkpt lat="45.81164" lon="4.84268">
        <ele>169.26</ele>
        <time>2019-09-14T08:09:28.000Z</time>
      </trkpt>
      <trkpt lat="45.81195" lon="4.8429">
        <ele>168.27</ele>
        <time>2019-09-14T08:09:33.000Z</time>
      </trkpt>
      <trkpt lat="45.81224" lon="4.84315">
        <ele>169.25</ele>
        <time>2019-09-14T08:09:38.000Z</time>
      </trkpt>
      <trkpt lat="45.81253" lon="4.84344">
        <ele>166.06</ele>
        <time>2019-09-14T08:09:43.000Z</time>
      </trkpt>
      <trkpt lat="45.81279" lon="4.84374">
        <ele>165.5</ele>
        <time>2019-09-14T08:09:48.000Z</time>
      </trkpt>
      <trkpt lat="45.81306" lon="4.84406">
        <ele>167.25</ele>
        <time>2019-09-14T08:09:53.000Z</time>
      </trkpt>
      <trkpt lat="45.81332" lon="4.84437">
        <ele>167.25</ele>
        <time>2019-09-14T08:09:58.000Z</time>
      </trkpt>
      <trkpt lat="45.81359" lon="4.8447">
        <ele>169.24</ele>
        <time>2019-09-14T08:10:03.000Z</time>
      </trkpt>
      <trkpt lat="45.81385" lon="4.84501">
        <ele>171.23</ele>
        <time>2019-09-14T08:10:08.000Z</time>
      </trkpt>
      <trkpt lat="45.8141" lon="4.84532">
        <ele>172.06</ele>
        <time>2019-09-14T08:10:13.000Z</time>
      </trkpt>
      <trkpt lat="45.81434" lon="4.8456">
        <ele>168.37</ele>
        <time>2019-09-14T08:10:18.000Z</time>
      </trkpt>
      <trkpt lat="45.81455" lon="4.84584">
        <ele>167.03</ele>
        <time>2019-09-14T08:10:23.000Z</time>
      </trkpt>
      <trkpt lat="45.8147" lon="4.8461">
        <ele>170.25</ele>
        <time>2019-09-14T08:10:28.000Z</time>
      </trkpt>
      <trkpt lat="45.81483" lon="4.84642">
        <ele>171.24</ele>
        <time>2019-09-14T08:10:33.000Z</time>
      </trkpt>
      <trkpt lat="45.81502" lon="4.84674">
        <ele>169.32</ele>
        <time>2019-09-14T08:10:38.000Z</time>
      </trkpt>
      <trkpt lat="45.81515" lon="4.84728">
        <ele>169.32</ele>
        <time>2019-09-14T08:10:43.000Z</time>
      </trkpt>
      <trkpt lat="45.81534" lon="4.8478">
        <ele>169.25</ele>
        <time>2019-09-14T08:10:48.000Z</time>
      </trkpt>
      <trkpt lat="45.8155" lon="4.84826">
        <ele>169.07</ele>
        <time>2019-09-14T08:10:53.000Z</time>
      </trkpt>
      <trkpt lat="45.8157" lon="4.84869">
        <ele>169.31</ele>
        <time>2019-09-14T08:10:58.000Z</time>
      </trkpt>
      <trkpt lat="45.81589" lon="4.84914">
        <ele>169.03</ele>
        <time>2019-09-14T08:11:03.000Z</time>
      </trkpt>
      <trkpt lat="45.81606" lon="4.84957">
        <ele>169.27</ele>
        <time>2019-09-14T08:11:08.000Z</time>
      </trkpt>
      <trkpt lat="45.81621" lon="4.84998">
        <ele>167.41</ele>
        <time>2019-09-14T08:11:13.000Z</time>
      </trkpt>
      <trkpt lat="45.81639" lon="4.85039">
        <ele>166.44</ele>
        <time>2019-09-14T08:11:18.000Z</time>
      </trkpt>
      <trkpt lat="45.81654" lon="4.85081">
        <ele>167.21</ele>
        <time>2019-09-14T08:11:23.000Z</time>
      </trkpt>
      <trkpt lat="45.81673" lon="4.85123">
        <ele>167.27</ele>
        <time>2019-09-14T08:11:28.000Z</time>
      </trkpt>
      <trkpt lat="45.81691" lon="4.85164">
        <ele>168.27</ele>
        <time>2019-09-14T08:11:33.000Z</time>
      </trkpt>
      <trkpt lat="45.8171" lon="4.85207">
        <ele>167.29</ele>
        <time>2019-09-14T08:11:38.000Z</time>
      </trkpt>
      <trkpt lat="45.81731" lon="4.85245">
        <ele>167.33</ele>
        <time>2019-09-14T08:11:43.000Z</time>
      </trkpt>
      <trkpt lat="45.81754" lon="4.85282">
        <ele>167.51</ele>
        <time>2019-09-14T08:11:48.000Z</time>
      </trkpt>
      <trkpt lat="45.81778" lon="4.85314">
        <ele>169.21</ele>
        <time>2019-09-14T08:11:53.000Z</time>
      </trkpt>
      <trkpt lat="45.81804" lon="4.85346">
        <ele>171.01</ele>
        <time>2019-09-14T08:11:58.000Z</time>
      </trkpt>
      <trkpt lat="45.81833" lon="4.85375">
        <ele>170.34</ele>
        <time>2019-09-14T08:12:03.000Z</time>
      </trkpt>
      <trkpt lat="45.8186" lon="4.854">
        <ele>170.29</ele>
        <time>2019-09-14T08:12:08.000Z</time>
      </trkpt>
      <trkpt lat="45.81891" lon="4.85421">
        <ele>168.29</ele>
        <time>2019-09-14T08:12:13.000Z</time>
      </trkpt>
      <trkpt lat="45.81924" lon="4.85439">
        <ele>169.52</ele>
        <time>2019-09-14T08:12:18.000Z</time>
      </trkpt>
      <trkpt lat="45.81953" lon="4.85452">
        <ele>168.35</ele>
        <time>2019-09-14T08:12:23.000Z</time>
      </trkpt>
      <trkpt lat="45.81984" lon="4.85464">
        <ele>167.33</ele>
        <time>2019-09-14T08:12:28.000Z</time>
      </trkpt>
      <trkpt lat="45.82019" lon="4.85476">
        <ele>167.27</ele>
        <time>2019-09-14T08:12:33.000Z</time>
      </trkpt>
      <trkpt lat="45.82053" lon="4.8548">
        <ele>166.28</ele>
        <time>2019-09-14T08:12:38.000Z</time>
      </trkpt>
      <trkpt lat="45.82088" lon="4.85484">
        <ele>166.05</ele>
        <time>2019-09-14T08:12:43.000Z</time>
      </trkpt>
      <trkpt lat="45.82126" lon="4.85484">
        <ele>165.35</ele>
        <time>2019-09-14T08:12:48.000Z</time>
      </trkpt>
      <trkpt lat="45.82162" lon="4.85486">
        <ele>168.72</ele>
        <time>2019-09-14T08:12:53.000Z</time>
      </trkpt>
      <trkpt lat="45.82194" lon="4.85483">
        <ele>168.34</ele>
        <time>2019-09-14T08:12:58.000Z</time>
      </trkpt>
      <trkpt lat="45.82228" lon="4.85475">
        <ele>169.25</ele>
        <time>2019-09-14T08:13:03.000Z</time>
      </trkpt>
      <trkpt lat="45.82263" lon="4.85473">
        <ele>169.99</ele>
        <time>2019-09-14T08:13:08.000Z</time>
      </trkpt>
      <trkpt lat="45.82293" lon="4.85464">
        <ele>168.28</ele>
        <time>2019-09-14T08:13:13.000Z</time>
      </trkpt>
      <trkpt lat="45.82325" lon="4.85454">
        <ele>169.03</ele>
        <time>2019-09-14T08:13:18.000Z</time>
      </trkpt>
      <trkpt lat="45.82358" lon="4.85438">
        <ele>168.52</ele>
        <time>2019-09-14T08:13:23.000Z</time>
      </trkpt>
      <trkpt lat="45.82387" lon="4.85425">
        <ele>169.47</ele>
        <time>2019-09-14T08:13:28.000Z</time>
      </trkpt>
      <trkpt lat="45.82419" lon="4.85413">
        <ele>169.97</ele>
        <time>2019-09-14T08:13:33.000Z</time>
      </trkpt>
      <trkpt lat="45.82448" lon="4.85394">
        <ele>170.98</ele>
        <time>2019-09-14T08:13:38.000Z</time>
      </trkpt>
      <trkpt lat="45.8248" lon="4.85368">
        <ele>170.25</ele>
        <time>2019-09-14T08:13:43.000Z</time>
      </trkpt>
      <trkpt lat="45.82512" lon="4.85351">
        <ele>172.03</ele>
        <time>2019-09-14T08:13:48.000Z</time>
      </trkpt>
      <trkpt lat="45.82547" lon="4.85332">
        <ele>172.52</ele>
        <time>2019-09-14T08:13:53.000Z</time>
      </trkpt>
      <trkpt lat="45.82579" lon="4.85311">
        <ele>171.53</ele>
        <time>2019-09-14T08:13:58.000Z</time>
      </trkpt>
      <trkpt lat="45.82611" lon="4.85285">
        <ele>171.28</ele>
        <time>2019-09-14T08:14:03.000Z</time>
      </trkpt>
      <trkpt lat="45.82643" lon="4.85264">
        <ele>170.72</ele>
        <time>2019-09-14T08:14:08.000Z</time>
      </trkpt>
      <trkpt lat="45.82676" lon="4.85241">
        <ele>166.57</ele>
        <time>2019-09-14T08:14:13.000Z</time>
      </trkpt>
      <trkpt lat="45.82707" lon="4.85224">
        <ele>162.34</ele>
        <time>2019-09-14T08:14:18.000Z</time>
      </trkpt>
      <trkpt lat="45.82734" lon="4.85202">
        <ele>165.22</ele>
        <time>2019-09-14T08:14:23.000Z</time>
      </trkpt>
      <trkpt lat="45.82763" lon="4.85176">
        <ele>161.06</ele>
        <time>2019-09-14T08:14:28.000Z</time>
      </trkpt>
      <trkpt lat="45.82793" lon="4.85153">
        <ele>161.78</ele>
        <time>2019-09-14T08:14:33.000Z</time>
      </trkpt>
      <trkpt lat="45.82819" lon="4.8513">
        <ele>161.27</ele>
        <time>2019-09-14T08:14:38.000Z</time>
      </trkpt>
      <trkpt lat="45.82846" lon="4.85104">
        <ele>163.97</ele>
        <time>2019-09-14T08:14:43.000Z</time>
      </trkpt>
      <trkpt lat="45.82873" lon="4.85076">
        <ele>166.22</ele>
        <time>2019-09-14T08:14:48.000Z</time>
      </trkpt>
      <trkpt lat="45.82901" lon="4.85049">
        <ele>168.26</ele>
        <time>2019-09-14T08:14:53.000Z</time>
      </trkpt>
      <trkpt lat="45.82927" lon="4.85018">
        <ele>169.25</ele>
        <time>2019-09-14T08:14:58.000Z</time>
      </trkpt>
      <trkpt lat="45.82951" lon="4.84985">
        <ele>169.28</ele>
        <time>2019-09-14T08:15:03.000Z</time>
      </trkpt>
      <trkpt lat="45.82977" lon="4.84955">
        <ele>172.47</ele>
        <time>2019-09-14T08:15:08.000Z</time>
      </trkpt>
      <trkpt lat="45.83002" lon="4.84918">
        <ele>169.9</ele>
        <time>2019-09-14T08:15:13.000Z</time>
      </trkpt>
      <trkpt lat="45.83025" lon="4.84888">
        <ele>170.22</ele>
        <time>2019-09-14T08:15:18.000Z</time>
      </trkpt>
      <trkpt lat="45.83044" lon="4.84852">
        <ele>172.36</ele>
        <time>2019-09-14T08:15:23.000Z</time>
      </trkpt>
      <trkpt lat="45.8306" lon="4.84813">
        <ele>169.36</ele>
        <time>2019-09-14T08:15:28.000Z</time>
      </trkpt>
      <trkpt lat="45.83076" lon="4.84783">
        <ele>168.09</ele>
        <time>2019-09-14T08:15:33.000Z</time>
      </trkpt>
      <trkpt lat="45.83086" lon="4.84759">
        <ele>162.47</ele>
        <time>2019-09-14T08:15:38.000Z</time>
      </trkpt>
      <trkpt lat="45.83103" lon="4.84746">
        <ele>165.09</ele>
        <time>2019-09-14T08:15:43.000Z</time>
      </trkpt>
      <trkpt lat="45.83125" lon="4.84761">
        <ele>165.26</ele>
        <time>2019-09-14T08:15:48.000Z</time>
      </trkpt>
      <trkpt lat="45.83146" lon="4.84783">
        <ele>169.01</ele>
        <time>2019-09-14T08:15:53.000Z</time>
      </trkpt>
      <trkpt lat="45.83163" lon="4.84799">
        <ele>171.26</ele>
        <time>2019-09-14T08:15:58.000Z</time>
      </trkpt>
      <trkpt lat="45.83175" lon="4.84812">
        <ele>170.34</ele>
        <time>2019-09-14T08:16:03.000Z</time>
      </trkpt>
      <trkpt lat="45.83197" lon="4.84834">
        <ele>171.29</ele>
        <time>2019-09-14T08:16:08.000Z</time>
      </trkpt>
      <trkpt lat="45.83215" lon="4.84853">
        <ele>171.03</ele>
        <time>2019-09-14T08:16:13.000Z</time>
      </trkpt>
      <trkpt lat="45.83226" lon="4.84862">
        <ele>170.34</ele>
        <time>2019-09-14T08:16:18.000Z</time>
      </trkpt>
      <trkpt lat="45.83237" lon="4.84859">
        <ele>172.45</ele>
        <time>2019-09-14T08:16:23.000Z</time>
      </trkpt>
      <trkpt lat="45.8325" lon="4.84822">
        <ele>171.09</ele>
        <time>2019-09-14T08:16:28.000Z</time>
      </trkpt>
      <trkpt lat="45.83264" lon="4.84778">
        <ele>169.52</ele>
        <time>2019-09-14T08:16:33.000Z</time>
      </trkpt>
      <trkpt lat="45.83276" lon="4.84733">
        <ele>167.49</ele>
        <time>2019-09-14T08:16:38.000Z</time>
      </trkpt>
      <trkpt lat="45.8329" lon="4.84686">
        <ele>167.28</ele>
        <time>2019-09-14T08:16:43.000Z</time>
      </trkpt>
      <trkpt lat="45.83302" lon="4.84642">
        <ele>167.03</ele>
        <time>2019-09-14T08:16:48.000Z</time>
      </trkpt>
      <trkpt lat="45.83314" lon="4.84602">
        <ele>168.03</ele>
        <time>2019-09-14T08:16:53.000Z</time>
      </trkpt>
      <trkpt lat="45.83324" lon="4.84566">
        <ele>170.2</ele>
        <time>2019-09-14T08:16:58.000Z</time>
      </trkpt>
      <trkpt lat="45.83333" lon="4.84527">
        <ele>168.35</ele>
        <time>2019-09-14T08:17:03.000Z</time>
      </trkpt>
      <trkpt lat="45.83344" lon="4.84485">
        <ele>168.71</ele>
        <time>2019-09-14T08:17:08.000Z</time>
      </trkpt>
      <trkpt lat="45.83355" lon="4.84443">
        <ele>168.52</ele>
        <time>2019-09-14T08:17:13.000Z</time>
      </trkpt>
      <trkpt lat="45.83365" lon="4.84402">
        <ele>166.54</ele>
        <time>2019-09-14T08:17:18.000Z</time>
      </trkpt>
      <trkpt lat="45.83379" lon="4.84364">
        <ele>166.33</ele>
        <time>2019-09-14T08:17:23.000Z</time>
      </trkpt>
      <trkpt lat="45.83391" lon="4.84323">
        <ele>168.21</ele>
        <time>2019-09-14T08:17:28.000Z</time>
      </trkpt>
      <trkpt lat="45.83403" lon="4.84284">
        <ele>169.02</ele>
        <time>2019-09-14T08:17:33.000Z</time>
      </trkpt>
      <trkpt lat="45.83416" lon="4.84244">
        <ele>168.48</ele>
        <time>2019-09-14T08:17:38.000Z</time>
      </trkpt>
      <trkpt lat="45.83425" lon="4.84206">
        <ele>168.27</ele>
        <time>2019-09-14T08:17:43.000Z</time>
      </trkpt>
      <trkpt lat="45.83431" lon="4.84163">
        <ele>167.27</ele>
        <time>2019-09-14T08:17:48.000Z</time>
      </trkpt>
      <trkpt lat="45.83435" lon="4.84137">
        <ele>168.03</ele>
        <time>2019-09-14T08:17:53.000Z</time>
      </trkpt>
      <trkpt lat="45.83437" lon="4.84107">
        <ele>169.21</ele>
        <time>2019-09-14T08:17:58.000Z</time>
      </trkpt>
      <trkpt lat="45.83447" lon="4.8407">
        <ele>167.52</ele>
        <time>2019-09-14T08:18:03.000Z</time>
      </trkpt>
      <trkpt lat="45.83457" lon="4.84026">
        <ele>164.35</ele>
        <time>2019-09-14T08:18:08.000Z</time>
      </trkpt>
      <trkpt lat="45.83466" lon="4.83976">
        <ele>167.95</ele>
        <time>2019-09-14T08:18:13.000Z</time>
      </trkpt>
      <trkpt lat="45.83475" lon="4.83934">
        <ele>168.56</ele>
        <time>2019-09-14T08:18:18.000Z</time>
      </trkpt>
      <trkpt lat="45.83486" lon="4.83892">
        <ele>169.2</ele>
        <time>2019-09-14T08:18:23.000Z</time>
      </trkpt>
      <trkpt lat="45.83493" lon="4.83862">
        <ele>168.51</ele>
        <time>2019-09-14T08:18:28.000Z</time>
      </trkpt>
      <trkpt lat="45.83498" lon="4.83849">
        <ele>167.22</ele>
        <time>2019-09-14T08:18:36.000Z</time>
      </trkpt>
      <trkpt lat="45.83507" lon="4.83823">
        <ele>168.19</ele>
        <time>2019-09-14T08:18:41.000Z</time>
      </trkpt>
      <trkpt lat="45.83518" lon="4.83788">
        <ele>166.27</ele>
        <time>2019-09-14T08:18:46.000Z</time>
      </trkpt>
      <trkpt lat="45.83532" lon="4.83751">
        <ele>166.5</ele>
        <time>2019-09-14T08:18:51.000Z</time>
      </trkpt>
      <trkpt lat="45.83547" lon="4.83715">
        <ele>167.2</ele>
        <time>2019-09-14T08:18:56.000Z</time>
      </trkpt>
      <trkpt lat="45.83562" lon="4.83677">
        <ele>165.76</ele>
        <time>2019-09-14T08:19:01.000Z</time>
      </trkpt>
      <trkpt lat="45.83576" lon="4.83658">
        <ele>167.32</ele>
        <time>2019-09-14T08:19:06.000Z</time>
      </trkpt>
      <trkpt lat="45.83586" lon="4.83628">
        <ele>170.01</ele>
        <time>2019-09-14T08:19:11.000Z</time>
      </trkpt>
      <trkpt lat="45.83603" lon="4.83596">
        <ele>170.43</ele>
        <time>2019-09-14T08:19:16.000Z</time>
      </trkpt>
      <trkpt lat="45.83618" lon="4.83556">
        <ele>168.29</ele>
        <time>2019-09-14T08:19:21.000Z</time>
      </trkpt>
      <trkpt lat="45.83637" lon="4.83526">
        <ele>169.26</ele>
        <time>2019-09-14T08:19:26.000Z</time>
      </trkpt>
      <trkpt lat="45.83659" lon="4.83493">
        <ele>165.39</ele>
        <time>2019-09-14T08:19:31.000Z</time>
      </trkpt>
      <trkpt lat="45.83682" lon="4.83469">
        <ele>166.24</ele>
        <time>2019-09-14T08:19:36.000Z</time>
      </trkpt>
      <trkpt lat="45.83708" lon="4.83444">
        <ele>164.7</ele>
        <time>2019-09-14T08:19:41.000Z</time>
      </trkpt>
      <trkpt lat="45.83732" lon="4.83423">
        <ele>164.45</ele>
        <time>2019-09-14T08:19:46.000Z</time>
      </trkpt>
      <trkpt lat="45.83744" lon="4.83412">
        <ele>164.96</ele>
        <time>2019-09-14T08:19:51.000Z</time>
      </trkpt>
      <trkpt lat="45.83762" lon="4.83399">
        <ele>167.22</ele>
        <time>2019-09-14T08:19:56.000Z</time>
      </trkpt>
      <trkpt lat="45.83788" lon="4.83382">
        <ele>168.07</ele>
        <time>2019-09-14T08:20:01.000Z</time>
      </trkpt>
      <trkpt lat="45.83816" lon="4.8337">
        <ele>171.97</ele>
        <time>2019-09-14T08:20:06.000Z</time>
      </trkpt>
      <trkpt lat="45.83844" lon="4.83357">
        <ele>172.45</ele>
        <time>2019-09-14T08:20:11.000Z</time>
      </trkpt>
      <trkpt lat="45.83874" lon="4.83344">
        <ele>170.03</ele>
        <time>2019-09-14T08:20:16.000Z</time>
      </trkpt>
      <trkpt lat="45.83905" lon="4.83331">
        <ele>169.46</ele>
        <time>2019-09-14T08:20:21.000Z</time>
      </trkpt>
      <trkpt lat="45.83935" lon="4.83322">
        <ele>169.26</ele>
        <time>2019-09-14T08:20:26.000Z</time>
      </trkpt>
      <trkpt lat="45.83964" lon="4.83314">
        <ele>169.01</ele>
        <time>2019-09-14T08:20:31.000Z</time>
      </trkpt>
      <trkpt lat="45.83994" lon="4.83309">
        <ele>164.26</ele>
        <time>2019-09-14T08:20:36.000Z</time>
      </trkpt>
      <trkpt lat="45.84028" lon="4.83311">
        <ele>161.3</ele>
        <time>2019-09-14T08:20:41.000Z</time>
      </trkpt>
      <trkpt lat="45.84057" lon="4.83312">
        <ele>162.95</ele>
        <time>2019-09-14T08:20:46.000Z</time>
      </trkpt>
      <trkpt lat="45.84086" lon="4.83319">
        <ele>164.02</ele>
        <time>2019-09-14T08:20:51.000Z</time>
      </trkpt>
      <trkpt lat="45.84119" lon="4.83327">
        <ele>164</ele>
        <time>2019-09-14T08:20:56.000Z</time>
      </trkpt>
      <trkpt lat="45.84148" lon="4.83336">
        <ele>165.26</ele>
        <time>2019-09-14T08:21:01.000Z</time>
      </trkpt>
      <trkpt lat="45.84175" lon="4.83341">
        <ele>166.26</ele>
        <time>2019-09-14T08:21:06.000Z</time>
      </trkpt>
      <trkpt lat="45.84205" lon="4.83353">
        <ele>167.27</ele>
        <time>2019-09-14T08:21:11.000Z</time>
      </trkpt>
      <trkpt lat="45.84235" lon="4.83361">
        <ele>167.26</ele>
        <time>2019-09-14T08:21:16.000Z</time>
      </trkpt>
      <trkpt lat="45.8426" lon="4.8337">
        <ele>167.45</ele>
        <time>2019-09-14T08:21:21.000Z</time>
      </trkpt>
      <trkpt lat="45.84286" lon="4.83381">
        <ele>167.08</ele>
        <time>2019-09-14T08:21:26.000Z</time>
      </trkpt>
      <trkpt lat="45.84317" lon="4.83393">
        <ele>169</ele>
        <time>2019-09-14T08:21:31.000Z</time>
      </trkpt>
      <trkpt lat="45.84348" lon="4.83405">
        <ele>164.65</ele>
        <time>2019-09-14T08:21:36.000Z</time>
      </trkpt>
      <trkpt lat="45.8438" lon="4.83416">
        <ele>165.25</ele>
        <time>2019-09-14T08:21:41.000Z</time>
      </trkpt>
      <trkpt lat="45.84413" lon="4.83428">
        <ele>166.44</ele>
        <time>2019-09-14T08:21:46.000Z</time>
      </trkpt>
      <trkpt lat="45.84445" lon="4.83438">
        <ele>168.25</ele>
        <time>2019-09-14T08:21:51.000Z</time>
      </trkpt>
      <trkpt lat="45.8447" lon="4.83449">
        <ele>165.96</ele>
        <time>2019-09-14T08:21:56.000Z</time>
      </trkpt>
      <trkpt lat="45.84498" lon="4.83459">
        <ele>167.01</ele>
        <time>2019-09-14T08:22:01.000Z</time>
      </trkpt>
      <trkpt lat="45.84524" lon="4.83478">
        <ele>167.27</ele>
        <time>2019-09-14T08:22:06.000Z</time>
      </trkpt>
      <trkpt lat="45.84553" lon="4.83491">
        <ele>166.27</ele>
        <time>2019-09-14T08:22:11.000Z</time>
      </trkpt>
      <trkpt lat="45.84579" lon="4.83504">
        <ele>166.26</ele>
        <time>2019-09-14T08:22:16.000Z</time>
      </trkpt>
      <trkpt lat="45.84602" lon="4.83516">
        <ele>167.02</ele>
        <time>2019-09-14T08:22:21.000Z</time>
      </trkpt>
      <trkpt lat="45.84605" lon="4.83534">
        <ele>169.02</ele>
        <time>2019-09-14T08:22:26.000Z</time>
      </trkpt>
      <trkpt lat="45.84608" lon="4.83555">
        <ele>169.27</ele>
        <time>2019-09-14T08:22:31.000Z</time>
      </trkpt>
      <trkpt lat="45.8463" lon="4.83567">
        <ele>169.27</ele>
        <time>2019-09-14T08:22:36.000Z</time>
      </trkpt>
      <trkpt lat="45.84653" lon="4.8358">
        <ele>171.01</ele>
        <time>2019-09-14T08:22:41.000Z</time>
      </trkpt>
      <trkpt lat="45.84677" lon="4.8359">
        <ele>170.27</ele>
        <time>2019-09-14T08:22:46.000Z</time>
      </trkpt>
      <trkpt lat="45.84704" lon="4.83604">
        <ele>169.52</ele>
        <time>2019-09-14T08:22:51.000Z</time>
      </trkpt>
      <trkpt lat="45.8473" lon="4.83618">
        <ele>171.01</ele>
        <time>2019-09-14T08:22:56.000Z</time>
      </trkpt>
      <trkpt lat="45.84755" lon="4.8363">
        <ele>169.13</ele>
        <time>2019-09-14T08:23:01.000Z</time>
      </trkpt>
      <trkpt lat="45.84783" lon="4.83644">
        <ele>170.32</ele>
        <time>2019-09-14T08:23:06.000Z</time>
      </trkpt>
      <trkpt lat="45.84809" lon="4.83656">
        <ele>169.52</ele>
        <time>2019-09-14T08:23:11.000Z</time>
      </trkpt>
      <trkpt lat="45.84834" lon="4.8367">
        <ele>168.48</ele>
        <time>2019-09-14T08:23:16.000Z</time>
      </trkpt>
      <trkpt lat="45.84859" lon="4.83683">
        <ele>168.07</ele>
        <time>2019-09-14T08:23:21.000Z</time>
      </trkpt>
      <trkpt lat="45.84885" lon="4.83697">
        <ele>168.53</ele>
        <time>2019-09-14T08:23:26.000Z</time>
      </trkpt>
      <trkpt lat="45.84912" lon="4.83712">
        <ele>167.35</ele>
        <time>2019-09-14T08:23:31.000Z</time>
      </trkpt>
      <trkpt lat="45.84937" lon="4.83724">
        <ele>165.28</ele>
        <time>2019-09-14T08:23:36.000Z</time>
      </trkpt>
      <trkpt lat="45.84962" lon="4.83726">
        <ele>164.28</ele>
        <time>2019-09-14T08:23:41.000Z</time>
      </trkpt>
      <trkpt lat="45.84983" lon="4.83735">
        <ele>165.26</ele>
        <time>2019-09-14T08:23:46.000Z</time>
      </trkpt>
      <trkpt lat="45.85005" lon="4.83754">
        <ele>167.25</ele>
        <time>2019-09-14T08:23:51.000Z</time>
      </trkpt>
      <trkpt lat="45.85031" lon="4.83766">
        <ele>168.28</ele>
        <time>2019-09-14T08:23:56.000Z</time>
      </trkpt>
      <trkpt lat="45.8506" lon="4.83776">
        <ele>168.66</ele>
        <time>2019-09-14T08:24:01.000Z</time>
      </trkpt>
      <trkpt lat="45.85088" lon="4.83784">
        <ele>168.3</ele>
        <time>2019-09-14T08:24:06.000Z</time>
      </trkpt>
      <trkpt lat="45.85119" lon="4.83792">
        <ele>168.84</ele>
        <time>2019-09-14T08:24:11.000Z</time>
      </trkpt>
      <trkpt lat="45.85149" lon="4.83802">
        <ele>164.39</ele>
        <time>2019-09-14T08:24:16.000Z</time>
      </trkpt>
      <trkpt lat="45.8518" lon="4.83811">
        <ele>164.27</ele>
        <time>2019-09-14T08:24:21.000Z</time>
      </trkpt>
      <trkpt lat="45.8521" lon="4.8382">
        <ele>166.28</ele>
        <time>2019-09-14T08:24:26.000Z</time>
      </trkpt>
      <trkpt lat="45.8524" lon="4.83825">
        <ele>166.28</ele>
        <time>2019-09-14T08:24:31.000Z</time>
      </trkpt>
      <trkpt lat="45.85271" lon="4.83834">
        <ele>169.53</ele>
        <time>2019-09-14T08:24:36.000Z</time>
      </trkpt>
      <trkpt lat="45.853" lon="4.83846">
        <ele>168.29</ele>
        <time>2019-09-14T08:24:41.000Z</time>
      </trkpt>
      <trkpt lat="45.85329" lon="4.83859">
        <ele>169.1</ele>
        <time>2019-09-14T08:24:46.000Z</time>
      </trkpt>
      <trkpt lat="45.85357" lon="4.83871">
        <ele>167.6</ele>
        <time>2019-09-14T08:24:51.000Z</time>
      </trkpt>
      <trkpt lat="45.85386" lon="4.83887">
        <ele>170.08</ele>
        <time>2019-09-14T08:24:56.000Z</time>
      </trkpt>
      <trkpt lat="45.85414" lon="4.839">
        <ele>168.48</ele>
        <time>2019-09-14T08:25:01.000Z</time>
      </trkpt>
      <trkpt lat="45.85443" lon="4.83913">
        <ele>168.35</ele>
        <time>2019-09-14T08:25:06.000Z</time>
      </trkpt>
      <trkpt lat="45.85471" lon="4.83928">
        <ele>168.29</ele>
        <time>2019-09-14T08:25:11.000Z</time>
      </trkpt>
      <trkpt lat="45.85501" lon="4.83942">
        <ele>166.6</ele>
        <time>2019-09-14T08:25:16.000Z</time>
      </trkpt>
      <trkpt lat="45.85527" lon="4.83957">
        <ele>167.79</ele>
        <time>2019-09-14T08:25:21.000Z</time>
      </trkpt>
      <trkpt lat="45.85554" lon="4.83972">
        <ele>169.27</ele>
        <time>2019-09-14T08:25:26.000Z</time>
      </trkpt>
      <trkpt lat="45.85583" lon="4.83987">
        <ele>167.78</ele>
        <time>2019-09-14T08:25:31.000Z</time>
      </trkpt>
      <trkpt lat="45.85611" lon="4.83999">
        <ele>167.1</ele>
        <time>2019-09-14T08:25:36.000Z</time>
      </trkpt>
      <trkpt lat="45.85639" lon="4.84012">
        <ele>165.6</ele>
        <time>2019-09-14T08:25:41.000Z</time>
      </trkpt>
      <trkpt lat="45.85666" lon="4.84026">
        <ele>165.11</ele>
        <time>2019-09-14T08:25:46.000Z</time>
      </trkpt>
      <trkpt lat="45.85695" lon="4.84038">
        <ele>166.22</ele>
        <time>2019-09-14T08:25:51.000Z</time>
      </trkpt>
      <trkpt lat="45.85723" lon="4.84051">
        <ele>166.29</ele>
        <time>2019-09-14T08:25:56.000Z</time>
      </trkpt>
      <trkpt lat="45.85753" lon="4.84065">
        <ele>166.04</ele>
        <time>2019-09-14T08:26:01.000Z</time>
      </trkpt>
      <trkpt lat="45.85783" lon="4.8408">
        <ele>166.29</ele>
        <time>2019-09-14T08:26:06.000Z</time>
      </trkpt>
      <trkpt lat="45.85811" lon="4.84093">
        <ele>167.29</ele>
        <time>2019-09-14T08:26:11.000Z</time>
      </trkpt>
      <trkpt lat="45.8584" lon="4.84108">
        <ele>169.23</ele>
        <time>2019-09-14T08:26:16.000Z</time>
      </trkpt>
      <trkpt lat="45.85868" lon="4.84119">
        <ele>168.35</ele>
        <time>2019-09-14T08:26:21.000Z</time>
      </trkpt>
      <trkpt lat="45.85897" lon="4.84126">
        <ele>167.24</ele>
        <time>2019-09-14T08:26:26.000Z</time>
      </trkpt>
      <trkpt lat="45.85926" lon="4.84126">
        <ele>166.28</ele>
        <time>2019-09-14T08:26:31.000Z</time>
      </trkpt>
      <trkpt lat="45.85954" lon="4.84124">
        <ele>165.41</ele>
        <time>2019-09-14T08:26:36.000Z</time>
      </trkpt>
      <trkpt lat="45.85986" lon="4.84119">
        <ele>166.81</ele>
        <time>2019-09-14T08:26:41.000Z</time>
      </trkpt>
      <trkpt lat="45.86015" lon="4.84111">
        <ele>166.11</ele>
        <time>2019-09-14T08:26:46.000Z</time>
      </trkpt>
      <trkpt lat="45.86048" lon="4.84104">
        <ele>165.61</ele>
        <time>2019-09-14T08:26:51.000Z</time>
      </trkpt>
      <trkpt lat="45.86077" lon="4.84095">
        <ele>163.2</ele>
        <time>2019-09-14T08:26:56.000Z</time>
      </trkpt>
      <trkpt lat="45.86104" lon="4.84089">
        <ele>164.24</ele>
        <time>2019-09-14T08:27:01.000Z</time>
      </trkpt>
      <trkpt lat="45.86138" lon="4.84083">
        <ele>166.33</ele>
        <time>2019-09-14T08:27:06.000Z</time>
      </trkpt>
      <trkpt lat="45.86166" lon="4.84075">
        <ele>167.1</ele>
        <time>2019-09-14T08:27:11.000Z</time>
      </trkpt>
      <trkpt lat="45.86198" lon="4.84069">
        <ele>168.05</ele>
        <time>2019-09-14T08:27:16.000Z</time>
      </trkpt>
      <trkpt lat="45.8623" lon="4.84061">
        <ele>169.04</ele>
        <time>2019-09-14T08:27:21.000Z</time>
      </trkpt>
      <trkpt lat="45.86261" lon="4.84053">
        <ele>168.55</ele>
        <time>2019-09-14T08:27:26.000Z</time>
      </trkpt>
      <trkpt lat="45.86291" lon="4.84045">
        <ele>168.36</ele>
        <time>2019-09-14T08:27:31.000Z</time>
      </trkpt>
      <trkpt lat="45.86318" lon="4.84039">
        <ele>169.96</ele>
        <time>2019-09-14T08:27:36.000Z</time>
      </trkpt>
      <trkpt lat="45.86349" lon="4.84031">
        <ele>168.1</ele>
        <time>2019-09-14T08:27:41.000Z</time>
      </trkpt>
      <trkpt lat="45.86377" lon="4.84024">
        <ele>168.99</ele>
        <time>2019-09-14T08:27:46.000Z</time>
      </trkpt>
      <trkpt lat="45.86407" lon="4.84017">
        <ele>168.06</ele>
        <time>2019-09-14T08:27:51.000Z</time>
      </trkpt>
      <trkpt lat="45.86438" lon="4.84009">
        <ele>168.3</ele>
        <time>2019-09-14T08:27:56.000Z</time>
      </trkpt>
      <trkpt lat="45.86467" lon="4.83997">
        <ele>167.49</ele>
        <time>2019-09-14T08:28:01.000Z</time>
      </trkpt>
      <trkpt lat="45.86495" lon="4.83988">
        <ele>168.05</ele>
        <time>2019-09-14T08:28:06.000Z</time>
      </trkpt>
      <trkpt lat="45.86525" lon="4.83977">
        <ele>166.35</ele>
        <time>2019-09-14T08:28:11.000Z</time>
      </trkpt>
      <trkpt lat="45.86555" lon="4.83969">
        <ele>166.55</ele>
        <time>2019-09-14T08:28:16.000Z</time>
      </trkpt>
      <trkpt lat="45.86583" lon="4.83961">
        <ele>167.24</ele>
        <time>2019-09-14T08:28:21.000Z</time>
      </trkpt>
      <trkpt lat="45.86612" lon="4.83954">
        <ele>166.64</ele>
        <time>2019-09-14T08:28:26.000Z</time>
      </trkpt>
      <trkpt lat="45.86627" lon="4.83942">
        <ele>165.8</ele>
        <time>2019-09-14T08:28:31.000Z</time>
      </trkpt>
      <trkpt lat="45.86643" lon="4.83929">
        <ele>166.23</ele>
        <time>2019-09-14T08:28:36.000Z</time>
      </trkpt>
      <trkpt lat="45.86667" lon="4.83905">
        <ele>166.41</ele>
        <time>2019-09-14T08:28:41.000Z</time>
      </trkpt>
      <trkpt lat="45.86689" lon="4.8388">
        <ele>163.57</ele>
        <time>2019-09-14T08:28:46.000Z</time>
      </trkpt>
      <trkpt lat="45.86706" lon="4.83854">
        <ele>164.23</ele>
        <time>2019-09-14T08:28:51.000Z</time>
      </trkpt>
      <trkpt lat="45.86728" lon="4.83832">
        <ele>162.26</ele>
        <time>2019-09-14T08:28:56.000Z</time>
      </trkpt>
      <trkpt lat="45.86748" lon="4.83812">
        <ele>161.8</ele>
        <time>2019-09-14T08:29:01.000Z</time>
      </trkpt>
      <trkpt lat="45.86771" lon="4.83791">
        <ele>163.79</ele>
        <time>2019-09-14T08:29:06.000Z</time>
      </trkpt>
      <trkpt lat="45.86791" lon="4.83774">
        <ele>165.05</ele>
        <time>2019-09-14T08:29:11.000Z</time>
      </trkpt>
      <trkpt lat="45.86821" lon="4.83757">
        <ele>163.82</ele>
        <time>2019-09-14T08:29:16.000Z</time>
      </trkpt>
      <trkpt lat="45.86841" lon="4.83743">
        <ele>165.05</ele>
        <time>2019-09-14T08:29:21.000Z</time>
      </trkpt>
      <trkpt lat="45.86863" lon="4.83732">
        <ele>166.3</ele>
        <time>2019-09-14T08:29:26.000Z</time>
      </trkpt>
      <trkpt lat="45.86883" lon="4.83721">
        <ele>165.56</ele>
        <time>2019-09-14T08:29:31.000Z</time>
      </trkpt>
      <trkpt lat="45.86909" lon="4.83711">
        <ele>163.54</ele>
        <time>2019-09-14T08:29:36.000Z</time>
      </trkpt>
      <trkpt lat="45.8693" lon="4.83706">
        <ele>165.3</ele>
        <time>2019-09-14T08:29:41.000Z</time>
      </trkpt>
      <trkpt lat="45.86959" lon="4.83702">
        <ele>166.29</ele>
        <time>2019-09-14T08:29:46.000Z</time>
      </trkpt>
      <trkpt lat="45.86985" lon="4.83704">
        <ele>167.21</ele>
        <time>2019-09-14T08:29:51.000Z</time>
      </trkpt>
      <trkpt lat="45.87015" lon="4.83703">
        <ele>169.28</ele>
        <time>2019-09-14T08:29:56.000Z</time>
      </trkpt>
      <trkpt lat="45.87045" lon="4.83701">
        <ele>168.29</ele>
        <time>2019-09-14T08:30:01.000Z</time>
      </trkpt>
      <trkpt lat="45.87069" lon="4.83701">
        <ele>166.8</ele>
        <time>2019-09-14T08:30:06.000Z</time>
      </trkpt>
      <trkpt lat="45.87093" lon="4.83703">
        <ele>166.3</ele>
        <time>2019-09-14T08:30:11.000Z</time>
      </trkpt>
      <trkpt lat="45.87116" lon="4.83712">
        <ele>167.11</ele>
        <time>2019-09-14T08:30:16.000Z</time>
      </trkpt>
      <trkpt lat="45.87141" lon="4.83719">
        <ele>168.3</ele>
        <time>2019-09-14T08:30:21.000Z</time>
      </trkpt>
      <trkpt lat="45.87169" lon="4.83726">
        <ele>169.04</ele>
        <time>2019-09-14T08:30:26.000Z</time>
      </trkpt>
      <trkpt lat="45.87195" lon="4.83729">
        <ele>166.76</ele>
        <time>2019-09-14T08:30:31.000Z</time>
      </trkpt>
      <trkpt lat="45.87222" lon="4.83733">
        <ele>167.2</ele>
        <time>2019-09-14T08:30:36.000Z</time>
      </trkpt>
      <trkpt lat="45.87244" lon="4.83726">
        <ele>169.05</ele>
        <time>2019-09-14T08:30:41.000Z</time>
      </trkpt>
      <trkpt lat="45.8727" lon="4.83728">
        <ele>169.06</ele>
        <time>2019-09-14T08:30:46.000Z</time>
      </trkpt>
      <trkpt lat="45.87299" lon="4.83734">
        <ele>169.3</ele>
        <time>2019-09-14T08:30:51.000Z</time>
      </trkpt>
      <trkpt lat="45.87328" lon="4.83739">
        <ele>168.5</ele>
        <time>2019-09-14T08:30:56.000Z</time>
      </trkpt>
      <trkpt lat="45.87358" lon="4.83749">
        <ele>167.61</ele>
        <time>2019-09-14T08:31:01.000Z</time>
      </trkpt>
      <trkpt lat="45.87364" lon="4.83759">
        <ele>167.31</ele>
        <time>2019-09-14T08:31:09.000Z</time>
      </trkpt>
      <trkpt lat="45.8737" lon="4.83746">
        <ele>167.37</ele>
        <time>2019-09-14T08:31:32.000Z</time>
      </trkpt>
      <trkpt lat="45.87393" lon="4.83749">
        <ele>167.12</ele>
        <time>2019-09-14T08:31:37.000Z</time>
      </trkpt>
      <trkpt lat="45.87403" lon="4.83752">
        <ele>168.3</ele>
        <time>2019-09-14T08:31:42.000Z</time>
      </trkpt>
      <trkpt lat="45.87418" lon="4.83759">
        <ele>168.55</ele>
        <time>2019-09-14T08:31:47.000Z</time>
      </trkpt>
      <trkpt lat="45.87436" lon="4.83762">
        <ele>169.99</ele>
        <time>2019-09-14T08:31:52.000Z</time>
      </trkpt>
      <trkpt lat="45.87458" lon="4.83764">
        <ele>171.25</ele>
        <time>2019-09-14T08:31:57.000Z</time>
      </trkpt>
      <trkpt lat="45.87485" lon="4.83768">
        <ele>171.32</ele>
        <time>2019-09-14T08:32:02.000Z</time>
      </trkpt>
      <trkpt lat="45.87511" lon="4.83772">
        <ele>169.57</ele>
        <time>2019-09-14T08:32:07.000Z</time>
      </trkpt>
      <trkpt lat="45.87531" lon="4.83777">
        <ele>168.37</ele>
        <time>2019-09-14T08:32:12.000Z</time>
      </trkpt>
      <trkpt lat="45.87551" lon="4.83782">
        <ele>167.31</ele>
        <time>2019-09-14T08:32:17.000Z</time>
      </trkpt>
      <trkpt lat="45.87575" lon="4.83782">
        <ele>167.26</ele>
        <time>2019-09-14T08:32:22.000Z</time>
      </trkpt>
      <trkpt lat="45.87602" lon="4.83785">
        <ele>167.31</ele>
        <time>2019-09-14T08:32:27.000Z</time>
      </trkpt>
      <trkpt lat="45.87628" lon="4.8379">
        <ele>168.23</ele>
        <time>2019-09-14T08:32:32.000Z</time>
      </trkpt>
      <trkpt lat="45.87655" lon="4.83793">
        <ele>169.06</ele>
        <time>2019-09-14T08:32:37.000Z</time>
      </trkpt>
      <trkpt lat="45.87681" lon="4.83789">
        <ele>168.32</ele>
        <time>2019-09-14T08:32:42.000Z</time>
      </trkpt>
      <trkpt lat="45.87702" lon="4.83783">
        <ele>166.56</ele>
        <time>2019-09-14T08:32:47.000Z</time>
      </trkpt>
      <trkpt lat="45.87718" lon="4.83783">
        <ele>169.29</ele>
        <time>2019-09-14T08:32:52.000Z</time>
      </trkpt>
      <trkpt lat="45.87739" lon="4.83781">
        <ele>167.32</ele>
        <time>2019-09-14T08:32:57.000Z</time>
      </trkpt>
      <trkpt lat="45.87766" lon="4.83771">
        <ele>166.33</ele>
        <time>2019-09-14T08:33:02.000Z</time>
      </trkpt>
      <trkpt lat="45.87791" lon="4.83759">
        <ele>167.29</ele>
        <time>2019-09-14T08:33:07.000Z</time>
      </trkpt>
      <trkpt lat="45.87815" lon="4.83742">
        <ele>169.62</ele>
        <time>2019-09-14T08:33:12.000Z</time>
      </trkpt>
      <trkpt lat="45.87839" lon="4.83725">
        <ele>168.87</ele>
        <time>2019-09-14T08:33:17.000Z</time>
      </trkpt>
      <trkpt lat="45.87862" lon="4.83708">
        <ele>167.08</ele>
        <time>2019-09-14T08:33:22.000Z</time>
      </trkpt>
      <trkpt lat="45.87882" lon="4.83681">
        <ele>165.58</ele>
        <time>2019-09-14T08:33:27.000Z</time>
      </trkpt>
      <trkpt lat="45.87903" lon="4.83653">
        <ele>163.58</ele>
        <time>2019-09-14T08:33:32.000Z</time>
      </trkpt>
      <trkpt lat="45.87924" lon="4.8363">
        <ele>164.31</ele>
        <time>2019-09-14T08:33:37.000Z</time>
      </trkpt>
      <trkpt lat="45.87939" lon="4.83606">
        <ele>167.79</ele>
        <time>2019-09-14T08:33:42.000Z</time>
      </trkpt>
      <trkpt lat="45.87948" lon="4.83594">
        <ele>169.25</ele>
        <time>2019-09-14T08:33:47.000Z</time>
      </trkpt>
      <trkpt lat="45.87957" lon="4.83592">
        <ele>169.04</ele>
        <time>2019-09-14T08:33:52.000Z</time>
      </trkpt>
      <trkpt lat="45.87968" lon="4.83571">
        <ele>169.5</ele>
        <time>2019-09-14T08:33:57.000Z</time>
      </trkpt>
      <trkpt lat="45.87974" lon="4.83537">
        <ele>173.04</ele>
        <time>2019-09-14T08:34:02.000Z</time>
      </trkpt>
      <trkpt lat="45.87981" lon="4.835">
        <ele>171.62</ele>
        <time>2019-09-14T08:34:07.000Z</time>
      </trkpt>
      <trkpt lat="45.87991" lon="4.83466">
        <ele>168.58</ele>
        <time>2019-09-14T08:34:12.000Z</time>
      </trkpt>
      <trkpt lat="45.87999" lon="4.83429">
        <ele>169.35</ele>
        <time>2019-09-14T08:34:17.000Z</time>
      </trkpt>
      <trkpt lat="45.88008" lon="4.83396">
        <ele>166.44</ele>
        <time>2019-09-14T08:34:22.000Z</time>
      </trkpt>
      <trkpt lat="45.88015" lon="4.83358">
        <ele>168.1</ele>
        <time>2019-09-14T08:34:27.000Z</time>
      </trkpt>
      <trkpt lat="45.8802" lon="4.83319">
        <ele>170.07</ele>
        <time>2019-09-14T08:34:32.000Z</time>
      </trkpt>
      <trkpt lat="45.88026" lon="4.8328">
        <ele>169.59</ele>
        <time>2019-09-14T08:34:37.000Z</time>
      </trkpt>
      <trkpt lat="45.88029" lon="4.83237">
        <ele>169.25</ele>
        <time>2019-09-14T08:34:42.000Z</time>
      </trkpt>
      <trkpt lat="45.88034" lon="4.83198">
        <ele>170.07</ele>
        <time>2019-09-14T08:34:47.000Z</time>
      </trkpt>
      <trkpt lat="45.8804" lon="4.8316">
        <ele>168.55</ele>
        <time>2019-09-14T08:34:52.000Z</time>
      </trkpt>
      <trkpt lat="45.88045" lon="4.83116">
        <ele>167.55</ele>
        <time>2019-09-14T08:34:57.000Z</time>
      </trkpt>
      <trkpt lat="45.8805" lon="4.83076">
        <ele>168.49</ele>
        <time>2019-09-14T08:35:02.000Z</time>
      </trkpt>
      <trkpt lat="45.88054" lon="4.83034">
        <ele>169.3</ele>
        <time>2019-09-14T08:35:07.000Z</time>
      </trkpt>
      <trkpt lat="45.88056" lon="4.82991">
        <ele>171.1</ele>
        <time>2019-09-14T08:35:12.000Z</time>
      </trkpt>
      <trkpt lat="45.88063" lon="4.82949">
        <ele>171.5</ele>
        <time>2019-09-14T08:35:17.000Z</time>
      </trkpt>
      <trkpt lat="45.88068" lon="4.82908">
        <ele>169.32</ele>
        <time>2019-09-14T08:35:22.000Z</time>
      </trkpt>
      <trkpt lat="45.88074" lon="4.82867">
        <ele>170.3</ele>
        <time>2019-09-14T08:35:27.000Z</time>
      </trkpt>
      <trkpt lat="45.8808" lon="4.82825">
        <ele>169.32</ele>
        <time>2019-09-14T08:35:32.000Z</time>
      </trkpt>
      <trkpt lat="45.88087" lon="4.82785">
        <ele>171.23</ele>
        <time>2019-09-14T08:35:37.000Z</time>
      </trkpt>
      <trkpt lat="45.88089" lon="4.82746">
        <ele>172</ele>
        <time>2019-09-14T08:35:42.000Z</time>
      </trkpt>
      <trkpt lat="45.88096" lon="4.82715">
        <ele>171.36</ele>
        <time>2019-09-14T08:35:47.000Z</time>
      </trkpt>
      <trkpt lat="45.88106" lon="4.8268">
        <ele>170.05</ele>
        <time>2019-09-14T08:35:52.000Z</time>
      </trkpt>
      <trkpt lat="45.88116" lon="4.82646">
        <ele>169.3</ele>
        <time>2019-09-14T08:35:57.000Z</time>
      </trkpt>
      <trkpt lat="45.88126" lon="4.82606">
        <ele>171.24</ele>
        <time>2019-09-14T08:36:02.000Z</time>
      </trkpt>
      <trkpt lat="45.88135" lon="4.82566">
        <ele>171.06</ele>
        <time>2019-09-14T08:36:07.000Z</time>
      </trkpt>
      <trkpt lat="45.88145" lon="4.82531">
        <ele>171.48</ele>
        <time>2019-09-14T08:36:12.000Z</time>
      </trkpt>
      <trkpt lat="45.88154" lon="4.82492">
        <ele>171.8</ele>
        <time>2019-09-14T08:36:17.000Z</time>
      </trkpt>
      <trkpt lat="45.88162" lon="4.82459">
        <ele>170.59</ele>
        <time>2019-09-14T08:36:22.000Z</time>
      </trkpt>
      <trkpt lat="45.88171" lon="4.82422">
        <ele>172.21</ele>
        <time>2019-09-14T08:36:27.000Z</time>
      </trkpt>
      <trkpt lat="45.88181" lon="4.82387">
        <ele>172.35</ele>
        <time>2019-09-14T08:36:32.000Z</time>
      </trkpt>
      <trkpt lat="45.88191" lon="4.82349">
        <ele>172.09</ele>
        <time>2019-09-14T08:36:37.000Z</time>
      </trkpt>
      <trkpt lat="45.88196" lon="4.82313">
        <ele>172.25</ele>
        <time>2019-09-14T08:36:42.000Z</time>
      </trkpt>
      <trkpt lat="45.88209" lon="4.82279">
        <ele>171.48</ele>
        <time>2019-09-14T08:36:47.000Z</time>
      </trkpt>
      <trkpt lat="45.88219" lon="4.82242">
        <ele>169.26</ele>
        <time>2019-09-14T08:36:52.000Z</time>
      </trkpt>
      <trkpt lat="45.88229" lon="4.82204">
        <ele>168.54</ele>
        <time>2019-09-14T08:36:57.000Z</time>
      </trkpt>
      <trkpt lat="45.88239" lon="4.82172">
        <ele>170.72</ele>
        <time>2019-09-14T08:37:02.000Z</time>
      </trkpt>
      <trkpt lat="45.88253" lon="4.82145">
        <ele>170.29</ele>
        <time>2019-09-14T08:37:07.000Z</time>
      </trkpt>
      <trkpt lat="45.88263" lon="4.82109">
        <ele>169.35</ele>
        <time>2019-09-14T08:37:12.000Z</time>
      </trkpt>
      <trkpt lat="45.88277" lon="4.82074">
        <ele>169.52</ele>
        <time>2019-09-14T08:37:17.000Z</time>
      </trkpt>
      <trkpt lat="45.8829" lon="4.82036">
        <ele>171.03</ele>
        <time>2019-09-14T08:37:22.000Z</time>
      </trkpt>
      <trkpt lat="45.88304" lon="4.82">
        <ele>173.22</ele>
        <time>2019-09-14T08:37:27.000Z</time>
      </trkpt>
      <trkpt lat="45.88319" lon="4.81964">
        <ele>172.53</ele>
        <time>2019-09-14T08:37:32.000Z</time>
      </trkpt>
      <trkpt lat="45.88334" lon="4.81929">
        <ele>173.28</ele>
        <time>2019-09-14T08:37:37.000Z</time>
      </trkpt>
      <trkpt lat="45.8835" lon="4.81894">
        <ele>175.02</ele>
        <time>2019-09-14T08:37:42.000Z</time>
      </trkpt>
      <trkpt lat="45.88365" lon="4.81858">
        <ele>175.1</ele>
        <time>2019-09-14T08:37:47.000Z</time>
      </trkpt>
      <trkpt lat="45.88383" lon="4.8182">
        <ele>174.29</ele>
        <time>2019-09-14T08:37:52.000Z</time>
      </trkpt>
      <trkpt lat="45.88401" lon="4.81787">
        <ele>174.53</ele>
        <time>2019-09-14T08:37:57.000Z</time>
      </trkpt>
      <trkpt lat="45.88419" lon="4.81756">
        <ele>171.49</ele>
        <time>2019-09-14T08:38:02.000Z</time>
      </trkpt>
      <trkpt lat="45.88433" lon="4.81723">
        <ele>174.95</ele>
        <time>2019-09-14T08:38:07.000Z</time>
      </trkpt>
      <trkpt lat="45.88455" lon="4.81694">
        <ele>175.27</ele>
        <time>2019-09-14T08:38:12.000Z</time>
      </trkpt>
      <trkpt lat="45.88473" lon="4.81667">
        <ele>172.36</ele>
        <time>2019-09-14T08:38:17.000Z</time>
      </trkpt>
      <trkpt lat="45.88497" lon="4.81645">
        <ele>171.28</ele>
        <time>2019-09-14T08:38:22.000Z</time>
      </trkpt>
      <trkpt lat="45.88515" lon="4.81622">
        <ele>172.33</ele>
        <time>2019-09-14T08:38:27.000Z</time>
      </trkpt>
      <trkpt lat="45.88535" lon="4.81596">
        <ele>172.28</ele>
        <time>2019-09-14T08:38:32.000Z</time>
      </trkpt>
      <trkpt lat="45.88556" lon="4.81569">
        <ele>175.94</ele>
        <time>2019-09-14T08:38:37.000Z</time>
      </trkpt>
      <trkpt lat="45.88578" lon="4.81543">
        <ele>175.29</ele>
        <time>2019-09-14T08:38:42.000Z</time>
      </trkpt>
      <trkpt lat="45.88597" lon="4.81516">
        <ele>174.42</ele>
        <time>2019-09-14T08:38:47.000Z</time>
      </trkpt>
      <trkpt lat="45.88617" lon="4.81492">
        <ele>175.33</ele>
        <time>2019-09-14T08:38:52.000Z</time>
      </trkpt>
      <trkpt lat="45.88637" lon="4.81466">
        <ele>174.29</ele>
        <time>2019-09-14T08:38:57.000Z</time>
      </trkpt>
      <trkpt lat="45.88658" lon="4.81438">
        <ele>173.29</ele>
        <time>2019-09-14T08:39:02.000Z</time>
      </trkpt>
      <trkpt lat="45.88677" lon="4.81416">
        <ele>175.71</ele>
        <time>2019-09-14T08:39:07.000Z</time>
      </trkpt>
      <trkpt lat="45.88696" lon="4.8139">
        <ele>177.22</ele>
        <time>2019-09-14T08:39:12.000Z</time>
      </trkpt>
      <trkpt lat="45.88716" lon="4.81363">
        <ele>178.23</ele>
        <time>2019-09-14T08:39:17.000Z</time>
      </trkpt>
      <trkpt lat="45.88736" lon="4.81334">
        <ele>176.05</ele>
        <time>2019-09-14T08:39:22.000Z</time>
      </trkpt>
      <trkpt lat="45.88756" lon="4.81316">
        <ele>178.76</ele>
        <time>2019-09-14T08:39:27.000Z</time>
      </trkpt>
      <trkpt lat="45.88777" lon="4.81292">
        <ele>179.33</ele>
        <time>2019-09-14T08:39:32.000Z</time>
      </trkpt>
      <trkpt lat="45.88799" lon="4.81267">
        <ele>181.28</ele>
        <time>2019-09-14T08:39:37.000Z</time>
      </trkpt>
      <trkpt lat="45.88825" lon="4.81233">
        <ele>177.51</ele>
        <time>2019-09-14T08:39:42.000Z</time>
      </trkpt>
      <trkpt lat="45.88849" lon="4.81214">
        <ele>173.29</ele>
        <time>2019-09-14T08:39:47.000Z</time>
      </trkpt>
      <trkpt lat="45.88874" lon="4.81193">
        <ele>171.5</ele>
        <time>2019-09-14T08:39:52.000Z</time>
      </trkpt>
      <trkpt lat="45.889" lon="4.81174">
        <ele>172.23</ele>
        <time>2019-09-14T08:39:57.000Z</time>
      </trkpt>
      <trkpt lat="45.88925" lon="4.81155">
        <ele>171.64</ele>
        <time>2019-09-14T08:40:02.000Z</time>
      </trkpt>
      <trkpt lat="45.88948" lon="4.81134">
        <ele>170.12</ele>
        <time>2019-09-14T08:40:07.000Z</time>
      </trkpt>
      <trkpt lat="45.88973" lon="4.81116">
        <ele>171.29</ele>
        <time>2019-09-14T08:40:12.000Z</time>
      </trkpt>
      <trkpt lat="45.88996" lon="4.81101">
        <ele>172.26</ele>
        <time>2019-09-14T08:40:17.000Z</time>
      </trkpt>
      <trkpt lat="45.89019" lon="4.81084">
        <ele>173.71</ele>
        <time>2019-09-14T08:40:22.000Z</time>
      </trkpt>
      <trkpt lat="45.8904" lon="4.81063">
        <ele>172.48</ele>
        <time>2019-09-14T08:40:27.000Z</time>
      </trkpt>
      <trkpt lat="45.89064" lon="4.81046">
        <ele>172.32</ele>
        <time>2019-09-14T08:40:32.000Z</time>
      </trkpt>
      <trkpt lat="45.89091" lon="4.81028">
        <ele>171.71</ele>
        <time>2019-09-14T08:40:37.000Z</time>
      </trkpt>
      <trkpt lat="45.89114" lon="4.81012">
        <ele>171.28</ele>
        <time>2019-09-14T08:40:42.000Z</time>
      </trkpt>
      <trkpt lat="45.89136" lon="4.80992">
        <ele>171.53</ele>
        <time>2019-09-14T08:40:47.000Z</time>
      </trkpt>
      <trkpt lat="45.89155" lon="4.80982">
        <ele>173.03</ele>
        <time>2019-09-14T08:40:52.000Z</time>
      </trkpt>
      <trkpt lat="45.8918" lon="4.80962">
        <ele>169.48</ele>
        <time>2019-09-14T08:40:57.000Z</time>
      </trkpt>
      <trkpt lat="45.89203" lon="4.80942">
        <ele>168.34</ele>
        <time>2019-09-14T08:41:02.000Z</time>
      </trkpt>
      <trkpt lat="45.89225" lon="4.80926">
        <ele>165.2</ele>
        <time>2019-09-14T08:41:07.000Z</time>
      </trkpt>
      <trkpt lat="45.89237" lon="4.80915">
        <ele>168.96</ele>
        <time>2019-09-14T08:41:12.000Z</time>
      </trkpt>
      <trkpt lat="45.89253" lon="4.80901">
        <ele>171.27</ele>
        <time>2019-09-14T08:41:17.000Z</time>
      </trkpt>
      <trkpt lat="45.89269" lon="4.80892">
        <ele>171.27</ele>
        <time>2019-09-14T08:41:22.000Z</time>
      </trkpt>
      <trkpt lat="45.89287" lon="4.8088">
        <ele>171.24</ele>
        <time>2019-09-14T08:41:27.000Z</time>
      </trkpt>
      <trkpt lat="45.89307" lon="4.80868">
        <ele>172.26</ele>
        <time>2019-09-14T08:41:32.000Z</time>
      </trkpt>
      <trkpt lat="45.89328" lon="4.80857">
        <ele>172.04</ele>
        <time>2019-09-14T08:41:37.000Z</time>
      </trkpt>
      <trkpt lat="45.89348" lon="4.80847">
        <ele>169.31</ele>
        <time>2019-09-14T08:41:42.000Z</time>
      </trkpt>
      <trkpt lat="45.89368" lon="4.80837">
        <ele>169.28</ele>
        <time>2019-09-14T08:41:47.000Z</time>
      </trkpt>
      <trkpt lat="45.89388" lon="4.80824">
        <ele>171.96</ele>
        <time>2019-09-14T08:41:52.000Z</time>
      </trkpt>
      <trkpt lat="45.89408" lon="4.80813">
        <ele>172.22</ele>
        <time>2019-09-14T08:41:57.000Z</time>
      </trkpt>
      <trkpt lat="45.89428" lon="4.80802">
        <ele>172.34</ele>
        <time>2019-09-14T08:42:02.000Z</time>
      </trkpt>
      <trkpt lat="45.89442" lon="4.80796">
        <ele>172.09</ele>
        <time>2019-09-14T08:42:07.000Z</time>
      </trkpt>
      <trkpt lat="45.8945" lon="4.80789">
        <ele>170.34</ele>
        <time>2019-09-14T08:42:13.000Z</time>
      </trkpt>
      <trkpt lat="45.89463" lon="4.80777">
        <ele>170.52</ele>
        <time>2019-09-14T08:42:18.000Z</time>
      </trkpt>
      <trkpt lat="45.8948" lon="4.80766">
        <ele>168.31</ele>
        <time>2019-09-14T08:42:23.000Z</time>
      </trkpt>
      <trkpt lat="45.89502" lon="4.80756">
        <ele>169.98</ele>
        <time>2019-09-14T08:42:28.000Z</time>
      </trkpt>
      <trkpt lat="45.89529" lon="4.80741">
        <ele>171.45</ele>
        <time>2019-09-14T08:42:33.000Z</time>
      </trkpt>
      <trkpt lat="45.89545" lon="4.80732">
        <ele>170.52</ele>
        <time>2019-09-14T08:42:38.000Z</time>
      </trkpt>
      <trkpt lat="45.89565" lon="4.80723">
        <ele>170.29</ele>
        <time>2019-09-14T08:42:43.000Z</time>
      </trkpt>
      <trkpt lat="45.89588" lon="4.80716">
        <ele>170.23</ele>
        <time>2019-09-14T08:42:48.000Z</time>
      </trkpt>
      <trkpt lat="45.89608" lon="4.8071">
        <ele>168.3</ele>
        <time>2019-09-14T08:42:53.000Z</time>
      </trkpt>
      <trkpt lat="45.89628" lon="4.80708">
        <ele>168.22</ele>
        <time>2019-09-14T08:42:58.000Z</time>
      </trkpt>
      <trkpt lat="45.89657" lon="4.80704">
        <ele>168.28</ele>
        <time>2019-09-14T08:43:03.000Z</time>
      </trkpt>
      <trkpt lat="45.8968" lon="4.80692">
        <ele>168.27</ele>
        <time>2019-09-14T08:43:08.000Z</time>
      </trkpt>
      <trkpt lat="45.897" lon="4.80681">
        <ele>168.09</ele>
        <time>2019-09-14T08:43:13.000Z</time>
      </trkpt>
      <trkpt lat="45.89724" lon="4.80668">
        <ele>167.25</ele>
        <time>2019-09-14T08:43:18.000Z</time>
      </trkpt>
      <trkpt lat="45.89745" lon="4.80649">
        <ele>169.02</ele>
        <time>2019-09-14T08:43:23.000Z</time>
      </trkpt>
      <trkpt lat="45.89769" lon="4.8063">
        <ele>169.26</ele>
        <time>2019-09-14T08:43:28.000Z</time>
      </trkpt>
      <trkpt lat="45.8979" lon="4.80609">
        <ele>169.28</ele>
        <time>2019-09-14T08:43:33.000Z</time>
      </trkpt>
      <trkpt lat="45.89811" lon="4.80592">
        <ele>168.02</ele>
        <time>2019-09-14T08:43:38.000Z</time>
      </trkpt>
      <trkpt lat="45.89834" lon="4.80575">
        <ele>166.53</ele>
        <time>2019-09-14T08:43:43.000Z</time>
      </trkpt>
      <trkpt lat="45.89855" lon="4.80561">
        <ele>165.48</ele>
        <time>2019-09-14T08:43:48.000Z</time>
      </trkpt>
      <trkpt lat="45.89881" lon="4.80549">
        <ele>165.52</ele>
        <time>2019-09-14T08:43:53.000Z</time>
      </trkpt>
      <trkpt lat="45.8991" lon="4.80532">
        <ele>166.29</ele>
        <time>2019-09-14T08:43:58.000Z</time>
      </trkpt>
      <trkpt lat="45.89933" lon="4.80516">
        <ele>168.27</ele>
        <time>2019-09-14T08:44:03.000Z</time>
      </trkpt>
      <trkpt lat="45.89962" lon="4.80512">
        <ele>167.53</ele>
        <time>2019-09-14T08:44:08.000Z</time>
      </trkpt>
      <trkpt lat="45.89988" lon="4.80511">
        <ele>165.59</ele>
        <time>2019-09-14T08:44:13.000Z</time>
      </trkpt>
      <trkpt lat="45.90013" lon="4.80508">
        <ele>165.26</ele>
        <time>2019-09-14T08:44:18.000Z</time>
      </trkpt>
      <trkpt lat="45.90041" lon="4.80513">
        <ele>164.34</ele>
        <time>2019-09-14T08:44:23.000Z</time>
      </trkpt>
      <trkpt lat="45.90067" lon="4.80515">
        <ele>164.28</ele>
        <time>2019-09-14T08:44:28.000Z</time>
      </trkpt>
      <trkpt lat="45.90092" lon="4.80518">
        <ele>162.97</ele>
        <time>2019-09-14T08:44:33.000Z</time>
      </trkpt>
      <trkpt lat="45.9012" lon="4.80529">
        <ele>162.53</ele>
        <time>2019-09-14T08:44:38.000Z</time>
      </trkpt>
      <trkpt lat="45.90144" lon="4.80534">
        <ele>163.03</ele>
        <time>2019-09-14T08:44:43.000Z</time>
      </trkpt>
      <trkpt lat="45.9017" lon="4.80544">
        <ele>164.27</ele>
        <time>2019-09-14T08:44:48.000Z</time>
      </trkpt>
      <trkpt lat="45.90193" lon="4.80554">
        <ele>165.47</ele>
        <time>2019-09-14T08:44:53.000Z</time>
      </trkpt>
      <trkpt lat="45.90216" lon="4.80567">
        <ele>167.28</ele>
        <time>2019-09-14T08:44:58.000Z</time>
      </trkpt>
      <trkpt lat="45.90238" lon="4.80582">
        <ele>167.28</ele>
        <time>2019-09-14T08:45:03.000Z</time>
      </trkpt>
      <trkpt lat="45.90259" lon="4.80599">
        <ele>166.35</ele>
        <time>2019-09-14T08:45:08.000Z</time>
      </trkpt>
      <trkpt lat="45.90282" lon="4.80616">
        <ele>167.28</ele>
        <time>2019-09-14T08:45:13.000Z</time>
      </trkpt>
      <trkpt lat="45.90303" lon="4.80633">
        <ele>167.28</ele>
        <time>2019-09-14T08:45:18.000Z</time>
      </trkpt>
      <trkpt lat="45.90322" lon="4.80653">
        <ele>167.28</ele>
        <time>2019-09-14T08:45:23.000Z</time>
      </trkpt>
      <trkpt lat="45.90339" lon="4.80674">
        <ele>166.35</ele>
        <time>2019-09-14T08:45:28.000Z</time>
      </trkpt>
      <trkpt lat="45.90357" lon="4.80697">
        <ele>166.28</ele>
        <time>2019-09-14T08:45:33.000Z</time>
      </trkpt>
      <trkpt lat="45.90375" lon="4.80721">
        <ele>166.29</ele>
        <time>2019-09-14T08:45:38.000Z</time>
      </trkpt>
      <trkpt lat="45.90391" lon="4.80746">
        <ele>166.29</ele>
        <time>2019-09-14T08:45:43.000Z</time>
      </trkpt>
      <trkpt lat="45.90405" lon="4.8077">
        <ele>167.1</ele>
        <time>2019-09-14T08:45:48.000Z</time>
      </trkpt>
      <trkpt lat="45.90421" lon="4.80797">
        <ele>167.23</ele>
        <time>2019-09-14T08:45:53.000Z</time>
      </trkpt>
      <trkpt lat="45.90433" lon="4.80826">
        <ele>165.54</ele>
        <time>2019-09-14T08:45:58.000Z</time>
      </trkpt>
      <trkpt lat="45.90447" lon="4.80854">
        <ele>166.27</ele>
        <time>2019-09-14T08:46:03.000Z</time>
      </trkpt>
      <trkpt lat="45.90461" lon="4.80887">
        <ele>167.27</ele>
        <time>2019-09-14T08:46:08.000Z</time>
      </trkpt>
      <trkpt lat="45.90476" lon="4.80914">
        <ele>168.04</ele>
        <time>2019-09-14T08:46:13.000Z</time>
      </trkpt>
      <trkpt lat="45.90493" lon="4.80926">
        <ele>166.35</ele>
        <time>2019-09-14T08:46:18.000Z</time>
      </trkpt>
      <trkpt lat="45.90503" lon="4.80932">
        <ele>167.53</ele>
        <time>2019-09-14T08:48:05.000Z</time>
      </trkpt>
      <trkpt lat="45.90495" lon="4.80938">
        <ele>169.35</ele>
        <time>2019-09-14T08:57:19.000Z</time>
      </trkpt>
      <trkpt lat="45.90497" lon="4.80951">
        <ele>169.35</ele>
        <time>2019-09-14T08:57:27.000Z</time>
      </trkpt>
      <trkpt lat="45.90507" lon="4.80963">
        <ele>169.29</ele>
        <time>2019-09-14T08:57:32.000Z</time>
      </trkpt>
      <trkpt lat="45.90518" lon="4.80974">
        <ele>168.36</ele>
        <time>2019-09-14T08:57:37.000Z</time>
      </trkpt>
      <trkpt lat="45.9053" lon="4.80987">
        <ele>167.54</ele>
        <time>2019-09-14T08:57:42.000Z</time>
      </trkpt>
      <trkpt lat="45.90541" lon="4.81003">
        <ele>167.29</ele>
        <time>2019-09-14T08:57:47.000Z</time>
      </trkpt>
      <trkpt lat="45.90548" lon="4.81023">
        <ele>167.29</ele>
        <time>2019-09-14T08:57:52.000Z</time>
      </trkpt>
      <trkpt lat="45.90556" lon="4.81034">
        <ele>168.29</ele>
        <time>2019-09-14T08:57:57.000Z</time>
      </trkpt>
      <trkpt lat="45.90569" lon="4.81041">
        <ele>169.29</ele>
        <time>2019-09-14T08:58:02.000Z</time>
      </trkpt>
      <trkpt lat="45.90578" lon="4.81046">
        <ele>169.48</ele>
        <time>2019-09-14T08:58:11.000Z</time>
      </trkpt>
      <trkpt lat="45.90587" lon="4.8105">
        <ele>170.28</ele>
        <time>2019-09-14T08:58:38.000Z</time>
      </trkpt>
      <trkpt lat="45.90598" lon="4.81064">
        <ele>170.28</ele>
        <time>2019-09-14T08:58:43.000Z</time>
      </trkpt>
      <trkpt lat="45.90609" lon="4.81078">
        <ele>170.29</ele>
        <time>2019-09-14T08:58:48.000Z</time>
      </trkpt>
      <trkpt lat="45.90623" lon="4.81092">
        <ele>170.11</ele>
        <time>2019-09-14T08:58:53.000Z</time>
      </trkpt>
      <trkpt lat="45.90641" lon="4.81107">
        <ele>170.29</ele>
        <time>2019-09-14T08:58:58.000Z</time>
      </trkpt>
      <trkpt lat="45.90661" lon="4.81124">
        <ele>171.23</ele>
        <time>2019-09-14T08:59:03.000Z</time>
      </trkpt>
      <trkpt lat="45.9068" lon="4.81141">
        <ele>171.29</ele>
        <time>2019-09-14T08:59:08.000Z</time>
      </trkpt>
      <trkpt lat="45.90702" lon="4.81153">
        <ele>170.55</ele>
        <time>2019-09-14T08:59:13.000Z</time>
      </trkpt>
      <trkpt lat="45.90726" lon="4.81167">
        <ele>170.3</ele>
        <time>2019-09-14T08:59:18.000Z</time>
      </trkpt>
      <trkpt lat="45.9075" lon="4.81178">
        <ele>171.23</ele>
        <time>2019-09-14T08:59:23.000Z</time>
      </trkpt>
      <trkpt lat="45.90776" lon="4.81187">
        <ele>171.3</ele>
        <time>2019-09-14T08:59:28.000Z</time>
      </trkpt>
      <trkpt lat="45.90802" lon="4.81196">
        <ele>171.55</ele>
        <time>2019-09-14T08:59:33.000Z</time>
      </trkpt>
      <trkpt lat="45.9083" lon="4.81204">
        <ele>171.3</ele>
        <time>2019-09-14T08:59:38.000Z</time>
      </trkpt>
      <trkpt lat="45.90858" lon="4.81212">
        <ele>170.3</ele>
        <time>2019-09-14T08:59:43.000Z</time>
      </trkpt>
      <trkpt lat="45.90887" lon="4.81219">
        <ele>170.3</ele>
        <time>2019-09-14T08:59:48.000Z</time>
      </trkpt>
      <trkpt lat="45.90914" lon="4.81226">
        <ele>171.29</ele>
        <time>2019-09-14T08:59:53.000Z</time>
      </trkpt>
      <trkpt lat="45.90941" lon="4.81233">
        <ele>171.3</ele>
        <time>2019-09-14T08:59:58.000Z</time>
      </trkpt>
      <trkpt lat="45.90968" lon="4.81239">
        <ele>171.3</ele>
        <time>2019-09-14T09:00:03.000Z</time>
      </trkpt>
      <trkpt lat="45.90994" lon="4.81243">
        <ele>171.3</ele>
        <time>2019-09-14T09:00:08.000Z</time>
      </trkpt>
      <trkpt lat="45.91018" lon="4.81229">
        <ele>171.3</ele>
        <time>2019-09-14T09:00:13.000Z</time>
      </trkpt>
      <trkpt lat="45.91034" lon="4.81203">
        <ele>170.37</ele>
        <time>2019-09-14T09:00:18.000Z</time>
      </trkpt>
      <trkpt lat="45.91053" lon="4.81185">
        <ele>168.55</ele>
        <time>2019-09-14T09:00:23.000Z</time>
      </trkpt>
      <trkpt lat="45.91078" lon="4.81174">
        <ele>167.55</ele>
        <time>2019-09-14T09:00:28.000Z</time>
      </trkpt>
      <trkpt lat="45.91104" lon="4.81173">
        <ele>167.38</ele>
        <time>2019-09-14T09:00:33.000Z</time>
      </trkpt>
      <trkpt lat="45.91129" lon="4.81172">
        <ele>167.3</ele>
        <time>2019-09-14T09:00:38.000Z</time>
      </trkpt>
      <trkpt lat="45.91155" lon="4.81167">
        <ele>169.05</ele>
        <time>2019-09-14T09:00:43.000Z</time>
      </trkpt>
      <trkpt lat="45.91182" lon="4.81166">
        <ele>168.37</ele>
        <time>2019-09-14T09:00:48.000Z</time>
      </trkpt>
      <trkpt lat="45.91207" lon="4.81161">
        <ele>169.29</ele>
        <time>2019-09-14T09:00:53.000Z</time>
      </trkpt>
      <trkpt lat="45.91233" lon="4.8116">
        <ele>170.3</ele>
        <time>2019-09-14T09:00:58.000Z</time>
      </trkpt>
      <trkpt lat="45.91258" lon="4.8116">
        <ele>170.31</ele>
        <time>2019-09-14T09:01:03.000Z</time>
      </trkpt>
      <trkpt lat="45.91283" lon="4.8116">
        <ele>169.37</ele>
        <time>2019-09-14T09:01:08.000Z</time>
      </trkpt>
      <trkpt lat="45.91307" lon="4.81162">
        <ele>170.3</ele>
        <time>2019-09-14T09:01:13.000Z</time>
      </trkpt>
      <trkpt lat="45.91332" lon="4.81162">
        <ele>171.24</ele>
        <time>2019-09-14T09:01:18.000Z</time>
      </trkpt>
      <trkpt lat="45.91359" lon="4.81163">
        <ele>172.26</ele>
        <time>2019-09-14T09:01:23.000Z</time>
      </trkpt>
      <trkpt lat="45.91386" lon="4.81168">
        <ele>172.55</ele>
        <time>2019-09-14T09:01:28.000Z</time>
      </trkpt>
      <trkpt lat="45.91409" lon="4.81179">
        <ele>172.31</ele>
        <time>2019-09-14T09:01:33.000Z</time>
      </trkpt>
      <trkpt lat="45.91418" lon="4.8119">
        <ele>172.31</ele>
        <time>2019-09-14T09:01:38.000Z</time>
      </trkpt>
      <trkpt lat="45.91429" lon="4.81194">
        <ele>172.54</ele>
        <time>2019-09-14T09:01:44.000Z</time>
      </trkpt>
      <trkpt lat="45.91448" lon="4.81206">
        <ele>172.07</ele>
        <time>2019-09-14T09:01:49.000Z</time>
      </trkpt>
      <trkpt lat="45.91471" lon="4.81213">
        <ele>170.56</ele>
        <time>2019-09-14T09:01:54.000Z</time>
      </trkpt>
      <trkpt lat="45.91496" lon="4.81216">
        <ele>171.25</ele>
        <time>2019-09-14T09:01:59.000Z</time>
      </trkpt>
      <trkpt lat="45.91522" lon="4.81215">
        <ele>172.31</ele>
        <time>2019-09-14T09:02:04.000Z</time>
      </trkpt>
      <trkpt lat="45.91548" lon="4.81213">
        <ele>171.31</ele>
        <time>2019-09-14T09:02:09.000Z</time>
      </trkpt>
      <trkpt lat="45.91576" lon="4.81214">
        <ele>170.3</ele>
        <time>2019-09-14T09:02:14.000Z</time>
      </trkpt>
      <trkpt lat="45.91602" lon="4.81212">
        <ele>170.31</ele>
        <time>2019-09-14T09:02:19.000Z</time>
      </trkpt>
      <trkpt lat="45.91626" lon="4.81213">
        <ele>170.31</ele>
        <time>2019-09-14T09:02:24.000Z</time>
      </trkpt>
      <trkpt lat="45.91654" lon="4.81211">
        <ele>168.37</ele>
        <time>2019-09-14T09:02:29.000Z</time>
      </trkpt>
      <trkpt lat="45.91682" lon="4.81207">
        <ele>170.24</ele>
        <time>2019-09-14T09:02:34.000Z</time>
      </trkpt>
      <trkpt lat="45.91709" lon="4.81202">
        <ele>171.31</ele>
        <time>2019-09-14T09:02:39.000Z</time>
      </trkpt>
      <trkpt lat="45.91739" lon="4.81197">
        <ele>170.31</ele>
        <time>2019-09-14T09:02:44.000Z</time>
      </trkpt>
      <trkpt lat="45.91767" lon="4.81192">
        <ele>171.06</ele>
        <time>2019-09-14T09:02:49.000Z</time>
      </trkpt>
      <trkpt lat="45.91794" lon="4.81187">
        <ele>171.3</ele>
        <time>2019-09-14T09:02:54.000Z</time>
      </trkpt>
      <trkpt lat="45.91822" lon="4.81182">
        <ele>171.07</ele>
        <time>2019-09-14T09:02:59.000Z</time>
      </trkpt>
      <trkpt lat="45.9185" lon="4.81178">
        <ele>171.5</ele>
        <time>2019-09-14T09:03:04.000Z</time>
      </trkpt>
      <trkpt lat="45.91876" lon="4.81169">
        <ele>173.53</ele>
        <time>2019-09-14T09:03:09.000Z</time>
      </trkpt>
      <trkpt lat="45.91896" lon="4.81161">
        <ele>176</ele>
        <time>2019-09-14T09:03:14.000Z</time>
      </trkpt>
      <trkpt lat="45.91909" lon="4.8115">
        <ele>176.36</ele>
        <time>2019-09-14T09:03:19.000Z</time>
      </trkpt>
      <trkpt lat="45.9193" lon="4.81146">
        <ele>172.82</ele>
        <time>2019-09-14T09:03:24.000Z</time>
      </trkpt>
      <trkpt lat="45.91955" lon="4.81137">
        <ele>173.3</ele>
        <time>2019-09-14T09:03:29.000Z</time>
      </trkpt>
      <trkpt lat="45.91978" lon="4.81121">
        <ele>170.83</ele>
        <time>2019-09-14T09:03:34.000Z</time>
      </trkpt>
      <trkpt lat="45.92003" lon="4.81104">
        <ele>171.31</ele>
        <time>2019-09-14T09:03:39.000Z</time>
      </trkpt>
      <trkpt lat="45.92027" lon="4.81084">
        <ele>174</ele>
        <time>2019-09-14T09:03:44.000Z</time>
      </trkpt>
      <trkpt lat="45.9205" lon="4.81065">
        <ele>174.31</ele>
        <time>2019-09-14T09:03:49.000Z</time>
      </trkpt>
      <trkpt lat="45.92073" lon="4.81047">
        <ele>175.31</ele>
        <time>2019-09-14T09:03:54.000Z</time>
      </trkpt>
      <trkpt lat="45.92096" lon="4.81027">
        <ele>175.37</ele>
        <time>2019-09-14T09:03:59.000Z</time>
      </trkpt>
      <trkpt lat="45.92119" lon="4.81007">
        <ele>175.5</ele>
        <time>2019-09-14T09:04:04.000Z</time>
      </trkpt>
      <trkpt lat="45.92135" lon="4.80981">
        <ele>174.33</ele>
        <time>2019-09-14T09:04:09.000Z</time>
      </trkpt>
      <trkpt lat="45.92157" lon="4.80961">
        <ele>175.25</ele>
        <time>2019-09-14T09:04:14.000Z</time>
      </trkpt>
      <trkpt lat="45.92177" lon="4.80938">
        <ele>175.13</ele>
        <time>2019-09-14T09:04:19.000Z</time>
      </trkpt>
      <trkpt lat="45.92193" lon="4.80907">
        <ele>174.13</ele>
        <time>2019-09-14T09:04:24.000Z</time>
      </trkpt>
      <trkpt lat="45.92211" lon="4.80878">
        <ele>172.38</ele>
        <time>2019-09-14T09:04:29.000Z</time>
      </trkpt>
      <trkpt lat="45.92226" lon="4.80849">
        <ele>173.06</ele>
        <time>2019-09-14T09:04:34.000Z</time>
      </trkpt>
      <trkpt lat="45.92242" lon="4.80816">
        <ele>170.39</ele>
        <time>2019-09-14T09:04:39.000Z</time>
      </trkpt>
      <trkpt lat="45.92254" lon="4.80782">
        <ele>171.05</ele>
        <time>2019-09-14T09:04:44.000Z</time>
      </trkpt>
      <trkpt lat="45.92268" lon="4.80752">
        <ele>171.08</ele>
        <time>2019-09-14T09:04:49.000Z</time>
      </trkpt>
      <trkpt lat="45.92278" lon="4.80718">
        <ele>171.06</ele>
        <time>2019-09-14T09:04:54.000Z</time>
      </trkpt>
      <trkpt lat="45.92288" lon="4.80688">
        <ele>171.26</ele>
        <time>2019-09-14T09:04:59.000Z</time>
      </trkpt>
      <trkpt lat="45.92294" lon="4.80653">
        <ele>171.25</ele>
        <time>2019-09-14T09:05:04.000Z</time>
      </trkpt>
      <trkpt lat="45.92302" lon="4.80617">
        <ele>170.31</ele>
        <time>2019-09-14T09:05:09.000Z</time>
      </trkpt>
      <trkpt lat="45.9231" lon="4.80584">
        <ele>170.12</ele>
        <time>2019-09-14T09:05:14.000Z</time>
      </trkpt>
      <trkpt lat="45.92314" lon="4.80547">
        <ele>170.31</ele>
        <time>2019-09-14T09:05:19.000Z</time>
      </trkpt>
      <trkpt lat="45.92318" lon="4.80511">
        <ele>170.31</ele>
        <time>2019-09-14T09:05:24.000Z</time>
      </trkpt>
      <trkpt lat="45.92325" lon="4.80473">
        <ele>170.36</ele>
        <time>2019-09-14T09:05:29.000Z</time>
      </trkpt>
      <trkpt lat="45.92333" lon="4.80437">
        <ele>170.32</ele>
        <time>2019-09-14T09:05:34.000Z</time>
      </trkpt>
      <trkpt lat="45.9234" lon="4.804">
        <ele>170.35</ele>
        <time>2019-09-14T09:05:39.000Z</time>
      </trkpt>
      <trkpt lat="45.92348" lon="4.80366">
        <ele>170.3</ele>
        <time>2019-09-14T09:05:44.000Z</time>
      </trkpt>
      <trkpt lat="45.92353" lon="4.80327">
        <ele>170.07</ele>
        <time>2019-09-14T09:05:49.000Z</time>
      </trkpt>
      <trkpt lat="45.9236" lon="4.80291">
        <ele>168.37</ele>
        <time>2019-09-14T09:05:54.000Z</time>
      </trkpt>
      <trkpt lat="45.92368" lon="4.80253">
        <ele>165.63</ele>
        <time>2019-09-14T09:05:59.000Z</time>
      </trkpt>
      <trkpt lat="45.92376" lon="4.80216">
        <ele>165.28</ele>
        <time>2019-09-14T09:06:04.000Z</time>
      </trkpt>
      <trkpt lat="45.92381" lon="4.80176">
        <ele>164.36</ele>
        <time>2019-09-14T09:06:09.000Z</time>
      </trkpt>
      <trkpt lat="45.92383" lon="4.80139">
        <ele>163.55</ele>
        <time>2019-09-14T09:06:14.000Z</time>
      </trkpt>
      <trkpt lat="45.92383" lon="4.801">
        <ele>164.05</ele>
        <time>2019-09-14T09:06:19.000Z</time>
      </trkpt>
      <trkpt lat="45.92381" lon="4.8006">
        <ele>166.28</ele>
        <time>2019-09-14T09:06:24.000Z</time>
      </trkpt>
      <trkpt lat="45.92378" lon="4.80022">
        <ele>167.3</ele>
        <time>2019-09-14T09:06:29.000Z</time>
      </trkpt>
      <trkpt lat="45.92374" lon="4.79982">
        <ele>168.24</ele>
        <time>2019-09-14T09:06:34.000Z</time>
      </trkpt>
      <trkpt lat="45.92372" lon="4.79944">
        <ele>168.11</ele>
        <time>2019-09-14T09:06:39.000Z</time>
      </trkpt>
      <trkpt lat="45.9237" lon="4.79907">
        <ele>168.3</ele>
        <time>2019-09-14T09:06:44.000Z</time>
      </trkpt>
      <trkpt lat="45.92367" lon="4.79871">
        <ele>168.11</ele>
        <time>2019-09-14T09:06:49.000Z</time>
      </trkpt>
      <trkpt lat="45.92364" lon="4.7983">
        <ele>168.3</ele>
        <time>2019-09-14T09:06:54.000Z</time>
      </trkpt>
      <trkpt lat="45.92361" lon="4.7979">
        <ele>169.28</ele>
        <time>2019-09-14T09:06:59.000Z</time>
      </trkpt>
      <trkpt lat="45.92358" lon="4.79757">
        <ele>167.31</ele>
        <time>2019-09-14T09:07:04.000Z</time>
      </trkpt>
      <trkpt lat="45.92358" lon="4.79729">
        <ele>169.17</ele>
        <time>2019-09-14T09:07:09.000Z</time>
      </trkpt>
      <trkpt lat="45.92353" lon="4.797">
        <ele>166.55</ele>
        <time>2019-09-14T09:07:14.000Z</time>
      </trkpt>
      <trkpt lat="45.92351" lon="4.79676">
        <ele>166.31</ele>
        <time>2019-09-14T09:07:19.000Z</time>
      </trkpt>
      <trkpt lat="45.92349" lon="4.79656">
        <ele>165.99</ele>
        <time>2019-09-14T09:07:24.000Z</time>
      </trkpt>
      <trkpt lat="45.92347" lon="4.79638">
        <ele>165.3</ele>
        <time>2019-09-14T09:07:29.000Z</time>
      </trkpt>
      <trkpt lat="45.92346" lon="4.79615">
        <ele>165.29</ele>
        <time>2019-09-14T09:07:34.000Z</time>
      </trkpt>
      <trkpt lat="45.92345" lon="4.79601">
        <ele>166.23</ele>
        <time>2019-09-14T09:07:39.000Z</time>
      </trkpt>
      <trkpt lat="45.92342" lon="4.79586">
        <ele>165.54</ele>
        <time>2019-09-14T09:07:45.000Z</time>
      </trkpt>
      <trkpt lat="45.92341" lon="4.79565">
        <ele>166.28</ele>
        <time>2019-09-14T09:07:50.000Z</time>
      </trkpt>
      <trkpt lat="45.92336" lon="4.79529">
        <ele>166.29</ele>
        <time>2019-09-14T09:07:55.000Z</time>
      </trkpt>
      <trkpt lat="45.9233" lon="4.79492">
        <ele>166.54</ele>
        <time>2019-09-14T09:08:00.000Z</time>
      </trkpt>
      <trkpt lat="45.92326" lon="4.79452">
        <ele>168.28</ele>
        <time>2019-09-14T09:08:05.000Z</time>
      </trkpt>
      <trkpt lat="45.92322" lon="4.79412">
        <ele>167.53</ele>
        <time>2019-09-14T09:08:10.000Z</time>
      </trkpt>
      <trkpt lat="45.92322" lon="4.7937">
        <ele>167.29</ele>
        <time>2019-09-14T09:08:15.000Z</time>
      </trkpt>
      <trkpt lat="45.9232" lon="4.79331">
        <ele>168.22</ele>
        <time>2019-09-14T09:08:20.000Z</time>
      </trkpt>
      <trkpt lat="45.92319" lon="4.79294">
        <ele>168.29</ele>
        <time>2019-09-14T09:08:25.000Z</time>
      </trkpt>
      <trkpt lat="45.92322" lon="4.79257">
        <ele>167.48</ele>
        <time>2019-09-14T09:08:30.000Z</time>
      </trkpt>
      <trkpt lat="45.92332" lon="4.79226">
        <ele>168.03</ele>
        <time>2019-09-14T09:08:35.000Z</time>
      </trkpt>
      <trkpt lat="45.92343" lon="4.79191">
        <ele>169.33</ele>
        <time>2019-09-14T09:08:40.000Z</time>
      </trkpt>
      <trkpt lat="45.92356" lon="4.79161">
        <ele>171.03</ele>
        <time>2019-09-14T09:08:45.000Z</time>
      </trkpt>
      <trkpt lat="45.92372" lon="4.79132">
        <ele>170.28</ele>
        <time>2019-09-14T09:08:50.000Z</time>
      </trkpt>
      <trkpt lat="45.92383" lon="4.79112">
        <ele>170.24</ele>
        <time>2019-09-14T09:08:55.000Z</time>
      </trkpt>
      <trkpt lat="45.92398" lon="4.79087">
        <ele>169.52</ele>
        <time>2019-09-14T09:09:00.000Z</time>
      </trkpt>
      <trkpt lat="45.92415" lon="4.7906">
        <ele>170.22</ele>
        <time>2019-09-14T09:09:05.000Z</time>
      </trkpt>
      <trkpt lat="45.92433" lon="4.79028">
        <ele>170.33</ele>
        <time>2019-09-14T09:09:10.000Z</time>
      </trkpt>
      <trkpt lat="45.92455" lon="4.79005">
        <ele>171.08</ele>
        <time>2019-09-14T09:09:15.000Z</time>
      </trkpt>
      <trkpt lat="45.92478" lon="4.78981">
        <ele>170.34</ele>
        <time>2019-09-14T09:09:20.000Z</time>
      </trkpt>
      <trkpt lat="45.92501" lon="4.78962">
        <ele>172.02</ele>
        <time>2019-09-14T09:09:25.000Z</time>
      </trkpt>
      <trkpt lat="45.92524" lon="4.78942">
        <ele>172.34</ele>
        <time>2019-09-14T09:09:30.000Z</time>
      </trkpt>
      <trkpt lat="45.92548" lon="4.78924">
        <ele>172.28</ele>
        <time>2019-09-14T09:09:35.000Z</time>
      </trkpt>
      <trkpt lat="45.92574" lon="4.78914">
        <ele>170.11</ele>
        <time>2019-09-14T09:09:40.000Z</time>
      </trkpt>
      <trkpt lat="45.92597" lon="4.78903">
        <ele>170.03</ele>
        <time>2019-09-14T09:09:45.000Z</time>
      </trkpt>
      <trkpt lat="45.92621" lon="4.78892">
        <ele>170.28</ele>
        <time>2019-09-14T09:09:50.000Z</time>
      </trkpt>
      <trkpt lat="45.92642" lon="4.78879">
        <ele>171.52</ele>
        <time>2019-09-14T09:09:55.000Z</time>
      </trkpt>
      <trkpt lat="45.9266" lon="4.78865">
        <ele>171.22</ele>
        <time>2019-09-14T09:10:00.000Z</time>
      </trkpt>
      <trkpt lat="45.92677" lon="4.78856">
        <ele>172.22</ele>
        <time>2019-09-14T09:10:05.000Z</time>
      </trkpt>
      <trkpt lat="45.92686" lon="4.78853">
        <ele>174.22</ele>
        <time>2019-09-14T09:10:10.000Z</time>
      </trkpt>
      <trkpt lat="45.92696" lon="4.78845">
        <ele>173.08</ele>
        <time>2019-09-14T09:10:37.000Z</time>
      </trkpt>
      <trkpt lat="45.92714" lon="4.78833">
        <ele>173.28</ele>
        <time>2019-09-14T09:10:42.000Z</time>
      </trkpt>
      <trkpt lat="45.92736" lon="4.78815">
        <ele>171.55</ele>
        <time>2019-09-14T09:10:47.000Z</time>
      </trkpt>
      <trkpt lat="45.92757" lon="4.78801">
        <ele>172.28</ele>
        <time>2019-09-14T09:10:52.000Z</time>
      </trkpt>
      <trkpt lat="45.92777" lon="4.78789">
        <ele>171.28</ele>
        <time>2019-09-14T09:10:57.000Z</time>
      </trkpt>
      <trkpt lat="45.92796" lon="4.78776">
        <ele>173.97</ele>
        <time>2019-09-14T09:11:02.000Z</time>
      </trkpt>
      <trkpt lat="45.92816" lon="4.78762">
        <ele>174.3</ele>
        <time>2019-09-14T09:11:07.000Z</time>
      </trkpt>
      <trkpt lat="45.92838" lon="4.78747">
        <ele>173.04</ele>
        <time>2019-09-14T09:11:12.000Z</time>
      </trkpt>
      <trkpt lat="45.9286" lon="4.7873">
        <ele>173.34</ele>
        <time>2019-09-14T09:11:17.000Z</time>
      </trkpt>
      <trkpt lat="45.9288" lon="4.78715">
        <ele>172.35</ele>
        <time>2019-09-14T09:11:22.000Z</time>
      </trkpt>
      <trkpt lat="45.92903" lon="4.78698">
        <ele>170.29</ele>
        <time>2019-09-14T09:11:27.000Z</time>
      </trkpt>
      <trkpt lat="45.92923" lon="4.78687">
        <ele>172.02</ele>
        <time>2019-09-14T09:11:32.000Z</time>
      </trkpt>
      <trkpt lat="45.92946" lon="4.78667">
        <ele>172.27</ele>
        <time>2019-09-14T09:11:37.000Z</time>
      </trkpt>
      <trkpt lat="45.92969" lon="4.78648">
        <ele>171.11</ele>
        <time>2019-09-14T09:11:42.000Z</time>
      </trkpt>
      <trkpt lat="45.9299" lon="4.78629">
        <ele>171.24</ele>
        <time>2019-09-14T09:11:47.000Z</time>
      </trkpt>
      <trkpt lat="45.93013" lon="4.78612">
        <ele>171.34</ele>
        <time>2019-09-14T09:11:52.000Z</time>
      </trkpt>
      <trkpt lat="45.93031" lon="4.786">
        <ele>171.28</ele>
        <time>2019-09-14T09:11:57.000Z</time>
      </trkpt>
      <trkpt lat="45.9305" lon="4.78588">
        <ele>172.22</ele>
        <time>2019-09-14T09:12:02.000Z</time>
      </trkpt>
      <trkpt lat="45.93066" lon="4.78572">
        <ele>172.28</ele>
        <time>2019-09-14T09:12:07.000Z</time>
      </trkpt>
      <trkpt lat="45.93089" lon="4.78554">
        <ele>173.27</ele>
        <time>2019-09-14T09:12:12.000Z</time>
      </trkpt>
      <trkpt lat="45.93116" lon="4.78538">
        <ele>172.28</ele>
        <time>2019-09-14T09:12:17.000Z</time>
      </trkpt>
      <trkpt lat="45.93141" lon="4.7852">
        <ele>171.29</ele>
        <time>2019-09-14T09:12:22.000Z</time>
      </trkpt>
      <trkpt lat="45.93166" lon="4.78502">
        <ele>172.22</ele>
        <time>2019-09-14T09:12:27.000Z</time>
      </trkpt>
      <trkpt lat="45.93191" lon="4.78485">
        <ele>174.25</ele>
        <time>2019-09-14T09:12:32.000Z</time>
      </trkpt>
      <trkpt lat="45.93217" lon="4.78466">
        <ele>174.41</ele>
        <time>2019-09-14T09:12:37.000Z</time>
      </trkpt>
      <trkpt lat="45.93243" lon="4.78447">
        <ele>176.02</ele>
        <time>2019-09-14T09:12:42.000Z</time>
      </trkpt>
      <trkpt lat="45.93269" lon="4.7843">
        <ele>175.3</ele>
        <time>2019-09-14T09:12:47.000Z</time>
      </trkpt>
      <trkpt lat="45.93293" lon="4.78413">
        <ele>175.28</ele>
        <time>2019-09-14T09:12:52.000Z</time>
      </trkpt>
      <trkpt lat="45.93318" lon="4.78397">
        <ele>176.22</ele>
        <time>2019-09-14T09:12:57.000Z</time>
      </trkpt>
      <trkpt lat="45.93342" lon="4.78378">
        <ele>175.28</ele>
        <time>2019-09-14T09:13:02.000Z</time>
      </trkpt>
      <trkpt lat="45.93366" lon="4.78362">
        <ele>174.3</ele>
        <time>2019-09-14T09:13:07.000Z</time>
      </trkpt>
      <trkpt lat="45.93388" lon="4.78346">
        <ele>174.28</ele>
        <time>2019-09-14T09:13:12.000Z</time>
      </trkpt>
      <trkpt lat="45.93412" lon="4.78332">
        <ele>172.53</ele>
        <time>2019-09-14T09:13:17.000Z</time>
      </trkpt>
      <trkpt lat="45.93435" lon="4.78318">
        <ele>174.21</ele>
        <time>2019-09-14T09:13:22.000Z</time>
      </trkpt>
      <trkpt lat="45.93459" lon="4.783">
        <ele>173.29</ele>
        <time>2019-09-14T09:13:27.000Z</time>
      </trkpt>
      <trkpt lat="45.93481" lon="4.78279">
        <ele>173.52</ele>
        <time>2019-09-14T09:13:32.000Z</time>
      </trkpt>
      <trkpt lat="45.93502" lon="4.78257">
        <ele>174.27</ele>
        <time>2019-09-14T09:13:37.000Z</time>
      </trkpt>
      <trkpt lat="45.93523" lon="4.78234">
        <ele>175.28</ele>
        <time>2019-09-14T09:13:42.000Z</time>
      </trkpt>
      <trkpt lat="45.93544" lon="4.78213">
        <ele>174.34</ele>
        <time>2019-09-14T09:13:47.000Z</time>
      </trkpt>
      <trkpt lat="45.93567" lon="4.78199">
        <ele>174.28</ele>
        <time>2019-09-14T09:13:52.000Z</time>
      </trkpt>
      <trkpt lat="45.93592" lon="4.78186">
        <ele>175.03</ele>
        <time>2019-09-14T09:13:57.000Z</time>
      </trkpt>
      <trkpt lat="45.93618" lon="4.78172">
        <ele>175.28</ele>
        <time>2019-09-14T09:14:02.000Z</time>
      </trkpt>
      <trkpt lat="45.93642" lon="4.78156">
        <ele>175.28</ele>
        <time>2019-09-14T09:14:07.000Z</time>
      </trkpt>
      <trkpt lat="45.93666" lon="4.78142">
        <ele>174.55</ele>
        <time>2019-09-14T09:14:12.000Z</time>
      </trkpt>
      <trkpt lat="45.9369" lon="4.78124">
        <ele>173.55</ele>
        <time>2019-09-14T09:14:17.000Z</time>
      </trkpt>
      <trkpt lat="45.93712" lon="4.781">
        <ele>174.23</ele>
        <time>2019-09-14T09:14:22.000Z</time>
      </trkpt>
      <trkpt lat="45.93735" lon="4.78075">
        <ele>174.27</ele>
        <time>2019-09-14T09:14:27.000Z</time>
      </trkpt>
      <trkpt lat="45.93756" lon="4.78049">
        <ele>174.28</ele>
        <time>2019-09-14T09:14:32.000Z</time>
      </trkpt>
      <trkpt lat="45.93776" lon="4.78021">
        <ele>175.03</ele>
        <time>2019-09-14T09:14:37.000Z</time>
      </trkpt>
      <trkpt lat="45.93798" lon="4.77994">
        <ele>175.28</ele>
        <time>2019-09-14T09:14:42.000Z</time>
      </trkpt>
      <trkpt lat="45.93817" lon="4.77964">
        <ele>176.28</ele>
        <time>2019-09-14T09:14:47.000Z</time>
      </trkpt>
      <trkpt lat="45.93838" lon="4.77938">
        <ele>175.35</ele>
        <time>2019-09-14T09:14:52.000Z</time>
      </trkpt>
      <trkpt lat="45.93856" lon="4.77909">
        <ele>177.22</ele>
        <time>2019-09-14T09:14:57.000Z</time>
      </trkpt>
      <trkpt lat="45.93873" lon="4.77884">
        <ele>177.28</ele>
        <time>2019-09-14T09:15:02.000Z</time>
      </trkpt>
      <trkpt lat="45.93886" lon="4.77868">
        <ele>177.47</ele>
        <time>2019-09-14T09:15:07.000Z</time>
      </trkpt>
      <trkpt lat="45.93892" lon="4.77858">
        <ele>173.28</ele>
        <time>2019-09-14T09:15:24.000Z</time>
      </trkpt>
      <trkpt lat="45.939" lon="4.77846">
        <ele>174.3</ele>
        <time>2019-09-14T09:15:52.000Z</time>
      </trkpt>
      <trkpt lat="45.93908" lon="4.7784">
        <ele>174.28</ele>
        <time>2019-09-14T09:15:58.000Z</time>
      </trkpt>
      <trkpt lat="45.93917" lon="4.77812">
        <ele>173.3</ele>
        <time>2019-09-14T09:16:03.000Z</time>
      </trkpt>
      <trkpt lat="45.93927" lon="4.77772">
        <ele>173.28</ele>
        <time>2019-09-14T09:16:08.000Z</time>
      </trkpt>
      <trkpt lat="45.93943" lon="4.77734">
        <ele>174.03</ele>
        <time>2019-09-14T09:16:13.000Z</time>
      </trkpt>
      <trkpt lat="45.93957" lon="4.77694">
        <ele>175.55</ele>
        <time>2019-09-14T09:16:18.000Z</time>
      </trkpt>
      <trkpt lat="45.9397" lon="4.77652">
        <ele>174.28</ele>
        <time>2019-09-14T09:16:23.000Z</time>
      </trkpt>
      <trkpt lat="45.9398" lon="4.77606">
        <ele>173.28</ele>
        <time>2019-09-14T09:16:28.000Z</time>
      </trkpt>
      <trkpt lat="45.9399" lon="4.77557">
        <ele>172.28</ele>
        <time>2019-09-14T09:16:33.000Z</time>
      </trkpt>
      <trkpt lat="45.93999" lon="4.77505">
        <ele>171.34</ele>
        <time>2019-09-14T09:16:38.000Z</time>
      </trkpt>
      <trkpt lat="45.94006" lon="4.77451">
        <ele>171.28</ele>
        <time>2019-09-14T09:16:43.000Z</time>
      </trkpt>
      <trkpt lat="45.94013" lon="4.77398">
        <ele>171.28</ele>
        <time>2019-09-14T09:16:48.000Z</time>
      </trkpt>
      <trkpt lat="45.94018" lon="4.77347">
        <ele>171.28</ele>
        <time>2019-09-14T09:16:53.000Z</time>
      </trkpt>
      <trkpt lat="45.94018" lon="4.77298">
        <ele>172.96</ele>
        <time>2019-09-14T09:16:58.000Z</time>
      </trkpt>
      <trkpt lat="45.9402" lon="4.7727">
        <ele>173.23</ele>
        <time>2019-09-14T09:17:03.000Z</time>
      </trkpt>
      <trkpt lat="45.94024" lon="4.77235">
        <ele>174.21</ele>
        <time>2019-09-14T09:17:08.000Z</time>
      </trkpt>
      <trkpt lat="45.94032" lon="4.77188">
        <ele>173.33</ele>
        <time>2019-09-14T09:17:13.000Z</time>
      </trkpt>
      <trkpt lat="45.94037" lon="4.77135">
        <ele>172.52</ele>
        <time>2019-09-14T09:17:18.000Z</time>
      </trkpt>
      <trkpt lat="45.94042" lon="4.77097">
        <ele>171.52</ele>
        <time>2019-09-14T09:17:23.000Z</time>
      </trkpt>
      <trkpt lat="45.94049" lon="4.77089">
        <ele>172.22</ele>
        <time>2019-09-14T09:17:30.000Z</time>
      </trkpt>
      <trkpt lat="45.94047" lon="4.77109">
        <ele>175.14</ele>
        <time>2019-09-14T09:17:35.000Z</time>
      </trkpt>
      <trkpt lat="45.94042" lon="4.77142">
        <ele>178.2</ele>
        <time>2019-09-14T09:17:40.000Z</time>
      </trkpt>
      <trkpt lat="45.94045" lon="4.77158">
        <ele>179.26</ele>
        <time>2019-09-14T09:17:45.000Z</time>
      </trkpt>
      <trkpt lat="45.94041" lon="4.77166">
        <ele>177.27</ele>
        <time>2019-09-14T09:20:17.000Z</time>
      </trkpt>
    </trkseg>
  </trk>
</gpx>